<?xml version="1.0" encoding="UTF-8" standalone="no" ?>
<gpx xmlns="http://www.topografix.com/GPX/1/1" xmlns:xsi="http://www.w3.org/2001/XMLSchema-instance" xsi:schemaLocation="http://www.topografix.com/GPX/1/1 http://www.topografix.com/GPX/1/1/gpx.xsd" version="1.1" creator="VisuGPX - https://www.visugpx.com">
  <metadata>
    <name>Xavier Blanc</name>
    <desc><![CDATA[rando pédestre assez facile. De très beaux paysages]]></desc>
  </metadata>
  <trk>
    <name><![CDATA[ONmove 220 - 09/05/2017]]></name>
    <trkseg>
      <trkpt lat="44.82478" lon="6.23335">
        <ele>1175</ele>
        <time>2017-05-09T08:02:10Z</time>
      </trkpt>
      <trkpt lat="44.82483" lon="6.23335">
        <ele>1176</ele>
        <time>2017-05-09T08:02:45Z</time>
      </trkpt>
      <trkpt lat="44.82484" lon="6.23336">
        <ele>1176</ele>
        <time>2017-05-09T08:02:50Z</time>
      </trkpt>
      <trkpt lat="44.82489" lon="6.23341">
        <ele>1177</ele>
        <time>2017-05-09T08:03:05Z</time>
      </trkpt>
      <trkpt lat="44.82496" lon="6.23361">
        <ele>1181</ele>
        <time>2017-05-09T08:03:25Z</time>
      </trkpt>
      <trkpt lat="44.82497" lon="6.23367">
        <ele>1181</ele>
        <time>2017-05-09T08:03:30Z</time>
      </trkpt>
      <trkpt lat="44.82491" lon="6.23376">
        <ele>1178</ele>
        <time>2017-05-09T08:03:40Z</time>
      </trkpt>
      <trkpt lat="44.82489" lon="6.23414">
        <ele>1178</ele>
        <time>2017-05-09T08:04:10Z</time>
      </trkpt>
      <trkpt lat="44.82491" lon="6.23421">
        <ele>1179</ele>
        <time>2017-05-09T08:04:15Z</time>
      </trkpt>
      <trkpt lat="44.82494" lon="6.23474">
        <ele>1183</ele>
        <time>2017-05-09T08:04:55Z</time>
      </trkpt>
      <trkpt lat="44.82485" lon="6.23494">
        <ele>1181</ele>
        <time>2017-05-09T08:05:10Z</time>
      </trkpt>
      <trkpt lat="44.8248" lon="6.23506">
        <ele>1181</ele>
        <time>2017-05-09T08:05:20Z</time>
      </trkpt>
      <trkpt lat="44.8248" lon="6.23545">
        <ele>1182</ele>
        <time>2017-05-09T08:05:50Z</time>
      </trkpt>
      <trkpt lat="44.82476" lon="6.23566">
        <ele>1182</ele>
        <time>2017-05-09T08:06:05Z</time>
      </trkpt>
      <trkpt lat="44.82477" lon="6.23573">
        <ele>1183</ele>
        <time>2017-05-09T08:06:10Z</time>
      </trkpt>
      <trkpt lat="44.82484" lon="6.23588">
        <ele>1184</ele>
        <time>2017-05-09T08:06:25Z</time>
      </trkpt>
      <trkpt lat="44.82488" lon="6.23645">
        <ele>1185</ele>
        <time>2017-05-09T08:07:10Z</time>
      </trkpt>
      <trkpt lat="44.82486" lon="6.23658">
        <ele>1184</ele>
        <time>2017-05-09T08:07:20Z</time>
      </trkpt>
      <trkpt lat="44.8249" lon="6.23698">
        <ele>1183</ele>
        <time>2017-05-09T08:07:50Z</time>
      </trkpt>
      <trkpt lat="44.82486" lon="6.23719">
        <ele>1182</ele>
        <time>2017-05-09T08:08:05Z</time>
      </trkpt>
      <trkpt lat="44.82483" lon="6.2379">
        <ele>1181</ele>
        <time>2017-05-09T08:09:00Z</time>
      </trkpt>
      <trkpt lat="44.82479" lon="6.23804">
        <ele>1180</ele>
        <time>2017-05-09T08:09:10Z</time>
      </trkpt>
      <trkpt lat="44.82482" lon="6.23822">
        <ele>1180</ele>
        <time>2017-05-09T08:09:25Z</time>
      </trkpt>
      <trkpt lat="44.82475" lon="6.23868">
        <ele>1179</ele>
        <time>2017-05-09T08:10:00Z</time>
      </trkpt>
      <trkpt lat="44.82478" lon="6.23887">
        <ele>1179</ele>
        <time>2017-05-09T08:10:15Z</time>
      </trkpt>
      <trkpt lat="44.82473" lon="6.23914">
        <ele>1179</ele>
        <time>2017-05-09T08:10:35Z</time>
      </trkpt>
      <trkpt lat="44.82477" lon="6.23944">
        <ele>1180</ele>
        <time>2017-05-09T08:11:00Z</time>
      </trkpt>
      <trkpt lat="44.82475" lon="6.23963">
        <ele>1180</ele>
        <time>2017-05-09T08:11:15Z</time>
      </trkpt>
      <trkpt lat="44.8248" lon="6.23977">
        <ele>1180</ele>
        <time>2017-05-09T08:11:30Z</time>
      </trkpt>
      <trkpt lat="44.82481" lon="6.23994">
        <ele>1181</ele>
        <time>2017-05-09T08:11:45Z</time>
      </trkpt>
      <trkpt lat="44.82478" lon="6.24007">
        <ele>1181</ele>
        <time>2017-05-09T08:11:55Z</time>
      </trkpt>
      <trkpt lat="44.82478" lon="6.24041">
        <ele>1183</ele>
        <time>2017-05-09T08:12:20Z</time>
      </trkpt>
      <trkpt lat="44.8248" lon="6.24053">
        <ele>1183</ele>
        <time>2017-05-09T08:12:35Z</time>
      </trkpt>
      <trkpt lat="44.82477" lon="6.24083">
        <ele>1185</ele>
        <time>2017-05-09T08:13:05Z</time>
      </trkpt>
      <trkpt lat="44.82484" lon="6.24092">
        <ele>1186</ele>
        <time>2017-05-09T08:13:15Z</time>
      </trkpt>
      <trkpt lat="44.82485" lon="6.24103">
        <ele>1186</ele>
        <time>2017-05-09T08:13:25Z</time>
      </trkpt>
      <trkpt lat="44.82496" lon="6.24117">
        <ele>1189</ele>
        <time>2017-05-09T08:13:45Z</time>
      </trkpt>
      <trkpt lat="44.82497" lon="6.24117">
        <ele>1189</ele>
        <time>2017-05-09T08:13:50Z</time>
      </trkpt>
      <trkpt lat="44.82488" lon="6.24125">
        <ele>1188</ele>
        <time>2017-05-09T08:14:00Z</time>
      </trkpt>
      <trkpt lat="44.82482" lon="6.24142">
        <ele>1188</ele>
        <time>2017-05-09T08:14:15Z</time>
      </trkpt>
      <trkpt lat="44.82485" lon="6.24146">
        <ele>1189</ele>
        <time>2017-05-09T08:14:30Z</time>
      </trkpt>
      <trkpt lat="44.82495" lon="6.24142">
        <ele>1190</ele>
        <time>2017-05-09T08:14:45Z</time>
      </trkpt>
      <trkpt lat="44.82495" lon="6.24141">
        <ele>1190</ele>
        <time>2017-05-09T08:15:15Z</time>
      </trkpt>
      <trkpt lat="44.82489" lon="6.24155">
        <ele>1190</ele>
        <time>2017-05-09T08:15:35Z</time>
      </trkpt>
      <trkpt lat="44.82485" lon="6.24168">
        <ele>1190</ele>
        <time>2017-05-09T08:15:45Z</time>
      </trkpt>
      <trkpt lat="44.82493" lon="6.24185">
        <ele>1191</ele>
        <time>2017-05-09T08:16:05Z</time>
      </trkpt>
      <trkpt lat="44.82509" lon="6.24272">
        <ele>1197</ele>
        <time>2017-05-09T08:17:25Z</time>
      </trkpt>
      <trkpt lat="44.82517" lon="6.24288">
        <ele>1199</ele>
        <time>2017-05-09T08:17:40Z</time>
      </trkpt>
      <trkpt lat="44.82518" lon="6.24306">
        <ele>1200</ele>
        <time>2017-05-09T08:17:55Z</time>
      </trkpt>
      <trkpt lat="44.82521" lon="6.24319">
        <ele>1201</ele>
        <time>2017-05-09T08:18:10Z</time>
      </trkpt>
      <trkpt lat="44.82518" lon="6.24338">
        <ele>1201</ele>
        <time>2017-05-09T08:18:30Z</time>
      </trkpt>
      <trkpt lat="44.8252" lon="6.2435">
        <ele>1202</ele>
        <time>2017-05-09T08:18:50Z</time>
      </trkpt>
      <trkpt lat="44.82514" lon="6.24368">
        <ele>1201</ele>
        <time>2017-05-09T08:19:10Z</time>
      </trkpt>
      <trkpt lat="44.82519" lon="6.24377">
        <ele>1203</ele>
        <time>2017-05-09T08:19:25Z</time>
      </trkpt>
      <trkpt lat="44.82525" lon="6.24415">
        <ele>1207</ele>
        <time>2017-05-09T08:20:00Z</time>
      </trkpt>
      <trkpt lat="44.82527" lon="6.2447">
        <ele>1210</ele>
        <time>2017-05-09T08:20:35Z</time>
      </trkpt>
      <trkpt lat="44.82532" lon="6.24482">
        <ele>1212</ele>
        <time>2017-05-09T08:20:45Z</time>
      </trkpt>
      <trkpt lat="44.82528" lon="6.24504">
        <ele>1212</ele>
        <time>2017-05-09T08:21:00Z</time>
      </trkpt>
      <trkpt lat="44.82527" lon="6.24519">
        <ele>1212</ele>
        <time>2017-05-09T08:21:15Z</time>
      </trkpt>
      <trkpt lat="44.82528" lon="6.24531">
        <ele>1213</ele>
        <time>2017-05-09T08:21:25Z</time>
      </trkpt>
      <trkpt lat="44.82531" lon="6.24536">
        <ele>1214</ele>
        <time>2017-05-09T08:21:35Z</time>
      </trkpt>
      <trkpt lat="44.82537" lon="6.24554">
        <ele>1216</ele>
        <time>2017-05-09T08:21:55Z</time>
      </trkpt>
      <trkpt lat="44.82536" lon="6.2456">
        <ele>1216</ele>
        <time>2017-05-09T08:22:00Z</time>
      </trkpt>
      <trkpt lat="44.82535" lon="6.24575">
        <ele>1216</ele>
        <time>2017-05-09T08:22:10Z</time>
      </trkpt>
      <trkpt lat="44.82538" lon="6.24587">
        <ele>1217</ele>
        <time>2017-05-09T08:22:20Z</time>
      </trkpt>
      <trkpt lat="44.82547" lon="6.2466">
        <ele>1221</ele>
        <time>2017-05-09T08:23:20Z</time>
      </trkpt>
      <trkpt lat="44.82548" lon="6.2469">
        <ele>1222</ele>
        <time>2017-05-09T08:23:45Z</time>
      </trkpt>
      <trkpt lat="44.82553" lon="6.2471">
        <ele>1223</ele>
        <time>2017-05-09T08:24:05Z</time>
      </trkpt>
      <trkpt lat="44.82552" lon="6.24743">
        <ele>1225</ele>
        <time>2017-05-09T08:24:40Z</time>
      </trkpt>
      <trkpt lat="44.82557" lon="6.24769">
        <ele>1228</ele>
        <time>2017-05-09T08:25:05Z</time>
      </trkpt>
      <trkpt lat="44.82556" lon="6.24787">
        <ele>1229</ele>
        <time>2017-05-09T08:25:25Z</time>
      </trkpt>
      <trkpt lat="44.82557" lon="6.24807">
        <ele>1231</ele>
        <time>2017-05-09T08:25:50Z</time>
      </trkpt>
      <trkpt lat="44.82559" lon="6.24813">
        <ele>1232</ele>
        <time>2017-05-09T08:26:00Z</time>
      </trkpt>
      <trkpt lat="44.82568" lon="6.24822">
        <ele>1237</ele>
        <time>2017-05-09T08:26:15Z</time>
      </trkpt>
      <trkpt lat="44.82566" lon="6.24828">
        <ele>1237</ele>
        <time>2017-05-09T08:26:20Z</time>
      </trkpt>
      <trkpt lat="44.82567" lon="6.2485">
        <ele>1239</ele>
        <time>2017-05-09T08:26:45Z</time>
      </trkpt>
      <trkpt lat="44.82565" lon="6.24852">
        <ele>1238</ele>
        <time>2017-05-09T08:27:10Z</time>
      </trkpt>
      <trkpt lat="44.82564" lon="6.24859">
        <ele>1238</ele>
        <time>2017-05-09T08:27:20Z</time>
      </trkpt>
      <trkpt lat="44.82573" lon="6.24886">
        <ele>1244</ele>
        <time>2017-05-09T08:27:45Z</time>
      </trkpt>
      <trkpt lat="44.82581" lon="6.24919">
        <ele>1250</ele>
        <time>2017-05-09T08:28:10Z</time>
      </trkpt>
      <trkpt lat="44.82581" lon="6.24959">
        <ele>1252</ele>
        <time>2017-05-09T08:28:40Z</time>
      </trkpt>
      <trkpt lat="44.82585" lon="6.24966">
        <ele>1254</ele>
        <time>2017-05-09T08:28:50Z</time>
      </trkpt>
      <trkpt lat="44.82583" lon="6.24988">
        <ele>1254</ele>
        <time>2017-05-09T08:29:10Z</time>
      </trkpt>
      <trkpt lat="44.82586" lon="6.24995">
        <ele>1256</ele>
        <time>2017-05-09T08:29:20Z</time>
      </trkpt>
      <trkpt lat="44.82589" lon="6.25011">
        <ele>1259</ele>
        <time>2017-05-09T08:29:35Z</time>
      </trkpt>
      <trkpt lat="44.8259" lon="6.25034">
        <ele>1262</ele>
        <time>2017-05-09T08:29:55Z</time>
      </trkpt>
      <trkpt lat="44.82591" lon="6.25045">
        <ele>1263</ele>
        <time>2017-05-09T08:30:05Z</time>
      </trkpt>
      <trkpt lat="44.82588" lon="6.25075">
        <ele>1265</ele>
        <time>2017-05-09T08:30:35Z</time>
      </trkpt>
      <trkpt lat="44.82585" lon="6.25085">
        <ele>1263</ele>
        <time>2017-05-09T08:30:45Z</time>
      </trkpt>
      <trkpt lat="44.82588" lon="6.25098">
        <ele>1266</ele>
        <time>2017-05-09T08:31:00Z</time>
      </trkpt>
      <trkpt lat="44.82583" lon="6.25117">
        <ele>1265</ele>
        <time>2017-05-09T08:31:20Z</time>
      </trkpt>
      <trkpt lat="44.82583" lon="6.25141">
        <ele>1267</ele>
        <time>2017-05-09T08:31:45Z</time>
      </trkpt>
      <trkpt lat="44.82585" lon="6.25167">
        <ele>1271</ele>
        <time>2017-05-09T08:32:15Z</time>
      </trkpt>
      <trkpt lat="44.82587" lon="6.25175">
        <ele>1273</ele>
        <time>2017-05-09T08:32:25Z</time>
      </trkpt>
      <trkpt lat="44.82586" lon="6.25187">
        <ele>1274</ele>
        <time>2017-05-09T08:32:40Z</time>
      </trkpt>
      <trkpt lat="44.8259" lon="6.2521">
        <ele>1279</ele>
        <time>2017-05-09T08:33:10Z</time>
      </trkpt>
      <trkpt lat="44.82594" lon="6.25219">
        <ele>1282</ele>
        <time>2017-05-09T08:33:20Z</time>
      </trkpt>
      <trkpt lat="44.82591" lon="6.25241">
        <ele>1284</ele>
        <time>2017-05-09T08:33:40Z</time>
      </trkpt>
      <trkpt lat="44.82584" lon="6.2525">
        <ele>1281</ele>
        <time>2017-05-09T08:33:55Z</time>
      </trkpt>
      <trkpt lat="44.82586" lon="6.25265">
        <ele>1284</ele>
        <time>2017-05-09T08:34:30Z</time>
      </trkpt>
      <trkpt lat="44.82578" lon="6.25284">
        <ele>1283</ele>
        <time>2017-05-09T08:34:50Z</time>
      </trkpt>
      <trkpt lat="44.82579" lon="6.25291">
        <ele>1285</ele>
        <time>2017-05-09T08:35:15Z</time>
      </trkpt>
      <trkpt lat="44.82578" lon="6.25291">
        <ele>1284</ele>
        <time>2017-05-09T08:35:20Z</time>
      </trkpt>
      <trkpt lat="44.82581" lon="6.25293">
        <ele>1286</ele>
        <time>2017-05-09T08:35:55Z</time>
      </trkpt>
      <trkpt lat="44.8258" lon="6.25292">
        <ele>1285</ele>
        <time>2017-05-09T08:36:30Z</time>
      </trkpt>
      <trkpt lat="44.82582" lon="6.25293">
        <ele>1286</ele>
        <time>2017-05-09T08:37:00Z</time>
      </trkpt>
      <trkpt lat="44.82581" lon="6.25295">
        <ele>1286</ele>
        <time>2017-05-09T08:37:25Z</time>
      </trkpt>
      <trkpt lat="44.82577" lon="6.25292">
        <ele>1283</ele>
        <time>2017-05-09T08:37:50Z</time>
      </trkpt>
      <trkpt lat="44.82573" lon="6.25306">
        <ele>1283</ele>
        <time>2017-05-09T08:38:10Z</time>
      </trkpt>
      <trkpt lat="44.82575" lon="6.2531">
        <ele>1285</ele>
        <time>2017-05-09T08:38:25Z</time>
      </trkpt>
      <trkpt lat="44.8257" lon="6.25326">
        <ele>1285</ele>
        <time>2017-05-09T08:38:45Z</time>
      </trkpt>
      <trkpt lat="44.82573" lon="6.25328">
        <ele>1287</ele>
        <time>2017-05-09T08:39:25Z</time>
      </trkpt>
      <trkpt lat="44.82573" lon="6.25339">
        <ele>1289</ele>
        <time>2017-05-09T08:39:45Z</time>
      </trkpt>
      <trkpt lat="44.82571" lon="6.25341">
        <ele>1288</ele>
        <time>2017-05-09T08:39:50Z</time>
      </trkpt>
      <trkpt lat="44.82568" lon="6.25357">
        <ele>1289</ele>
        <time>2017-05-09T08:40:05Z</time>
      </trkpt>
      <trkpt lat="44.82564" lon="6.25361">
        <ele>1287</ele>
        <time>2017-05-09T08:40:10Z</time>
      </trkpt>
      <trkpt lat="44.82553" lon="6.25378">
        <ele>1285</ele>
        <time>2017-05-09T08:40:30Z</time>
      </trkpt>
      <trkpt lat="44.82555" lon="6.25383">
        <ele>1287</ele>
        <time>2017-05-09T08:40:35Z</time>
      </trkpt>
      <trkpt lat="44.82553" lon="6.25444">
        <ele>1294</ele>
        <time>2017-05-09T08:41:20Z</time>
      </trkpt>
      <trkpt lat="44.8255" lon="6.25459">
        <ele>1294</ele>
        <time>2017-05-09T08:41:35Z</time>
      </trkpt>
      <trkpt lat="44.82549" lon="6.25467">
        <ele>1295</ele>
        <time>2017-05-09T08:41:45Z</time>
      </trkpt>
      <trkpt lat="44.82551" lon="6.25475">
        <ele>1296</ele>
        <time>2017-05-09T08:41:55Z</time>
      </trkpt>
      <trkpt lat="44.82549" lon="6.25491">
        <ele>1297</ele>
        <time>2017-05-09T08:42:10Z</time>
      </trkpt>
      <trkpt lat="44.8256" lon="6.25521">
        <ele>1305</ele>
        <time>2017-05-09T08:42:35Z</time>
      </trkpt>
      <trkpt lat="44.82561" lon="6.25537">
        <ele>1308</ele>
        <time>2017-05-09T08:43:00Z</time>
      </trkpt>
      <trkpt lat="44.82575" lon="6.2557">
        <ele>1321</ele>
        <time>2017-05-09T08:43:30Z</time>
      </trkpt>
      <trkpt lat="44.82584" lon="6.25585">
        <ele>1329</ele>
        <time>2017-05-09T08:43:45Z</time>
      </trkpt>
      <trkpt lat="44.82585" lon="6.25593">
        <ele>1331</ele>
        <time>2017-05-09T08:43:50Z</time>
      </trkpt>
      <trkpt lat="44.82579" lon="6.25602">
        <ele>1328</ele>
        <time>2017-05-09T08:44:00Z</time>
      </trkpt>
      <trkpt lat="44.82571" lon="6.2562">
        <ele>1326</ele>
        <time>2017-05-09T08:44:20Z</time>
      </trkpt>
      <trkpt lat="44.82565" lon="6.25654">
        <ele>1328</ele>
        <time>2017-05-09T08:44:50Z</time>
      </trkpt>
      <trkpt lat="44.82553" lon="6.25673">
        <ele>1324</ele>
        <time>2017-05-09T08:45:10Z</time>
      </trkpt>
      <trkpt lat="44.82545" lon="6.25682">
        <ele>1322</ele>
        <time>2017-05-09T08:45:25Z</time>
      </trkpt>
      <trkpt lat="44.82544" lon="6.25686">
        <ele>1322</ele>
        <time>2017-05-09T08:45:30Z</time>
      </trkpt>
      <trkpt lat="44.82545" lon="6.25701">
        <ele>1326</ele>
        <time>2017-05-09T08:46:00Z</time>
      </trkpt>
      <trkpt lat="44.82543" lon="6.25701">
        <ele>1325</ele>
        <time>2017-05-09T08:46:25Z</time>
      </trkpt>
      <trkpt lat="44.82539" lon="6.25721">
        <ele>1327</ele>
        <time>2017-05-09T08:46:55Z</time>
      </trkpt>
      <trkpt lat="44.82538" lon="6.25726">
        <ele>1328</ele>
        <time>2017-05-09T08:47:00Z</time>
      </trkpt>
      <trkpt lat="44.82539" lon="6.25735">
        <ele>1330</ele>
        <time>2017-05-09T08:47:10Z</time>
      </trkpt>
      <trkpt lat="44.82541" lon="6.25746">
        <ele>1334</ele>
        <time>2017-05-09T08:47:25Z</time>
      </trkpt>
      <trkpt lat="44.82543" lon="6.25762">
        <ele>1337</ele>
        <time>2017-05-09T08:47:40Z</time>
      </trkpt>
      <trkpt lat="44.82545" lon="6.25768">
        <ele>1339</ele>
        <time>2017-05-09T08:47:45Z</time>
      </trkpt>
      <trkpt lat="44.82548" lon="6.25782">
        <ele>1342</ele>
        <time>2017-05-09T08:48:00Z</time>
      </trkpt>
      <trkpt lat="44.82549" lon="6.25799">
        <ele>1345</ele>
        <time>2017-05-09T08:48:15Z</time>
      </trkpt>
      <trkpt lat="44.82545" lon="6.25814">
        <ele>1344</ele>
        <time>2017-05-09T08:48:30Z</time>
      </trkpt>
      <trkpt lat="44.82551" lon="6.2585">
        <ele>1348</ele>
        <time>2017-05-09T08:49:05Z</time>
      </trkpt>
      <trkpt lat="44.82549" lon="6.25873">
        <ele>1347</ele>
        <time>2017-05-09T08:49:30Z</time>
      </trkpt>
      <trkpt lat="44.82552" lon="6.25881">
        <ele>1349</ele>
        <time>2017-05-09T08:49:40Z</time>
      </trkpt>
      <trkpt lat="44.82562" lon="6.25892">
        <ele>1353</ele>
        <time>2017-05-09T08:50:00Z</time>
      </trkpt>
      <trkpt lat="44.82567" lon="6.2589">
        <ele>1355</ele>
        <time>2017-05-09T08:50:10Z</time>
      </trkpt>
      <trkpt lat="44.82569" lon="6.25882">
        <ele>1357</ele>
        <time>2017-05-09T08:50:25Z</time>
      </trkpt>
      <trkpt lat="44.82578" lon="6.25878">
        <ele>1361</ele>
        <time>2017-05-09T08:50:45Z</time>
      </trkpt>
      <trkpt lat="44.82583" lon="6.25872">
        <ele>1364</ele>
        <time>2017-05-09T08:50:55Z</time>
      </trkpt>
      <trkpt lat="44.82586" lon="6.25872">
        <ele>1365</ele>
        <time>2017-05-09T08:51:05Z</time>
      </trkpt>
      <trkpt lat="44.82588" lon="6.25891">
        <ele>1366</ele>
        <time>2017-05-09T08:51:35Z</time>
      </trkpt>
      <trkpt lat="44.82601" lon="6.25881">
        <ele>1372</ele>
        <time>2017-05-09T08:52:00Z</time>
      </trkpt>
      <trkpt lat="44.82601" lon="6.25889">
        <ele>1372</ele>
        <time>2017-05-09T08:52:10Z</time>
      </trkpt>
      <trkpt lat="44.82609" lon="6.25901">
        <ele>1375</ele>
        <time>2017-05-09T08:52:30Z</time>
      </trkpt>
      <trkpt lat="44.82612" lon="6.25904">
        <ele>1376</ele>
        <time>2017-05-09T08:52:35Z</time>
      </trkpt>
      <trkpt lat="44.82614" lon="6.25909">
        <ele>1376</ele>
        <time>2017-05-09T08:52:45Z</time>
      </trkpt>
      <trkpt lat="44.82614" lon="6.2591">
        <ele>1376</ele>
        <time>2017-05-09T08:53:10Z</time>
      </trkpt>
      <trkpt lat="44.82616" lon="6.25916">
        <ele>1377</ele>
        <time>2017-05-09T08:53:30Z</time>
      </trkpt>
      <trkpt lat="44.82617" lon="6.25917">
        <ele>1377</ele>
        <time>2017-05-09T08:53:50Z</time>
      </trkpt>
      <trkpt lat="44.82617" lon="6.25917">
        <ele>1377</ele>
        <time>2017-05-09T08:54:00Z</time>
      </trkpt>
      <trkpt lat="44.82617" lon="6.25917">
        <ele>1377</ele>
        <time>2017-05-09T08:54:45Z</time>
      </trkpt>
      <trkpt lat="44.82617" lon="6.25917">
        <ele>1377</ele>
        <time>2017-05-09T08:56:40Z</time>
      </trkpt>
      <trkpt lat="44.82617" lon="6.25917">
        <ele>1377</ele>
        <time>2017-05-09T08:56:50Z</time>
      </trkpt>
      <trkpt lat="44.82617" lon="6.25917">
        <ele>1377</ele>
        <time>2017-05-09T08:57:50Z</time>
      </trkpt>
      <trkpt lat="44.82617" lon="6.25917">
        <ele>1377</ele>
        <time>2017-05-09T08:58:25Z</time>
      </trkpt>
      <trkpt lat="44.82617" lon="6.25918">
        <ele>1377</ele>
        <time>2017-05-09T08:58:50Z</time>
      </trkpt>
      <trkpt lat="44.82619" lon="6.25925">
        <ele>1377</ele>
        <time>2017-05-09T08:58:55Z</time>
      </trkpt>
      <trkpt lat="44.82624" lon="6.2593">
        <ele>1379</ele>
        <time>2017-05-09T08:59:10Z</time>
      </trkpt>
      <trkpt lat="44.82628" lon="6.25943">
        <ele>1379</ele>
        <time>2017-05-09T08:59:25Z</time>
      </trkpt>
      <trkpt lat="44.82629" lon="6.25949">
        <ele>1379</ele>
        <time>2017-05-09T08:59:30Z</time>
      </trkpt>
      <trkpt lat="44.82634" lon="6.25953">
        <ele>1382</ele>
        <time>2017-05-09T08:59:35Z</time>
      </trkpt>
      <trkpt lat="44.82648" lon="6.2597">
        <ele>1388</ele>
        <time>2017-05-09T09:00:05Z</time>
      </trkpt>
      <trkpt lat="44.82652" lon="6.2598">
        <ele>1389</ele>
        <time>2017-05-09T09:00:30Z</time>
      </trkpt>
      <trkpt lat="44.82659" lon="6.25985">
        <ele>1392</ele>
        <time>2017-05-09T09:00:45Z</time>
      </trkpt>
      <trkpt lat="44.82665" lon="6.25986">
        <ele>1395</ele>
        <time>2017-05-09T09:01:00Z</time>
      </trkpt>
      <trkpt lat="44.82676" lon="6.25997">
        <ele>1399</ele>
        <time>2017-05-09T09:01:30Z</time>
      </trkpt>
      <trkpt lat="44.82682" lon="6.25998">
        <ele>1402</ele>
        <time>2017-05-09T09:01:45Z</time>
      </trkpt>
      <trkpt lat="44.82684" lon="6.26006">
        <ele>1402</ele>
        <time>2017-05-09T09:02:05Z</time>
      </trkpt>
      <trkpt lat="44.82687" lon="6.26006">
        <ele>1403</ele>
        <time>2017-05-09T09:02:30Z</time>
      </trkpt>
      <trkpt lat="44.82686" lon="6.26006">
        <ele>1403</ele>
        <time>2017-05-09T09:02:35Z</time>
      </trkpt>
      <trkpt lat="44.82682" lon="6.26012">
        <ele>1400</ele>
        <time>2017-05-09T09:02:50Z</time>
      </trkpt>
      <trkpt lat="44.82681" lon="6.26017">
        <ele>1400</ele>
        <time>2017-05-09T09:03:00Z</time>
      </trkpt>
      <trkpt lat="44.82683" lon="6.26017">
        <ele>1401</ele>
        <time>2017-05-09T09:03:25Z</time>
      </trkpt>
      <trkpt lat="44.82683" lon="6.26015">
        <ele>1401</ele>
        <time>2017-05-09T09:03:35Z</time>
      </trkpt>
      <trkpt lat="44.82684" lon="6.26015">
        <ele>1401</ele>
        <time>2017-05-09T09:03:45Z</time>
      </trkpt>
      <trkpt lat="44.82683" lon="6.26015">
        <ele>1401</ele>
        <time>2017-05-09T09:04:05Z</time>
      </trkpt>
      <trkpt lat="44.82683" lon="6.26014">
        <ele>1401</ele>
        <time>2017-05-09T09:05:30Z</time>
      </trkpt>
      <trkpt lat="44.82683" lon="6.26014">
        <ele>1401</ele>
        <time>2017-05-09T09:05:45Z</time>
      </trkpt>
      <trkpt lat="44.82683" lon="6.26014">
        <ele>1401</ele>
        <time>2017-05-09T09:06:25Z</time>
      </trkpt>
      <trkpt lat="44.82683" lon="6.26014">
        <ele>1401</ele>
        <time>2017-05-09T09:06:45Z</time>
      </trkpt>
      <trkpt lat="44.82684" lon="6.26014">
        <ele>1401</ele>
        <time>2017-05-09T09:07:00Z</time>
      </trkpt>
      <trkpt lat="44.82684" lon="6.26014">
        <ele>1401</ele>
        <time>2017-05-09T09:07:05Z</time>
      </trkpt>
      <trkpt lat="44.82683" lon="6.26012">
        <ele>1401</ele>
        <time>2017-05-09T09:07:20Z</time>
      </trkpt>
      <trkpt lat="44.82672" lon="6.26012">
        <ele>1396</ele>
        <time>2017-05-09T09:07:40Z</time>
      </trkpt>
      <trkpt lat="44.82664" lon="6.2601">
        <ele>1392</ele>
        <time>2017-05-09T09:07:50Z</time>
      </trkpt>
      <trkpt lat="44.82657" lon="6.26006">
        <ele>1389</ele>
        <time>2017-05-09T09:08:05Z</time>
      </trkpt>
      <trkpt lat="44.82655" lon="6.26017">
        <ele>1388</ele>
        <time>2017-05-09T09:08:15Z</time>
      </trkpt>
      <trkpt lat="44.82644" lon="6.26038">
        <ele>1386</ele>
        <time>2017-05-09T09:08:40Z</time>
      </trkpt>
      <trkpt lat="44.8265" lon="6.26054">
        <ele>1391</ele>
        <time>2017-05-09T09:09:00Z</time>
      </trkpt>
      <trkpt lat="44.82654" lon="6.26057">
        <ele>1393</ele>
        <time>2017-05-09T09:09:25Z</time>
      </trkpt>
      <trkpt lat="44.82653" lon="6.26073">
        <ele>1395</ele>
        <time>2017-05-09T09:09:55Z</time>
      </trkpt>
      <trkpt lat="44.82656" lon="6.26075">
        <ele>1397</ele>
        <time>2017-05-09T09:10:10Z</time>
      </trkpt>
      <trkpt lat="44.82655" lon="6.26063">
        <ele>1395</ele>
        <time>2017-05-09T09:10:45Z</time>
      </trkpt>
      <trkpt lat="44.82652" lon="6.26059">
        <ele>1393</ele>
        <time>2017-05-09T09:10:50Z</time>
      </trkpt>
      <trkpt lat="44.82651" lon="6.26063">
        <ele>1393</ele>
        <time>2017-05-09T09:11:00Z</time>
      </trkpt>
      <trkpt lat="44.82645" lon="6.26063">
        <ele>1390</ele>
        <time>2017-05-09T09:11:55Z</time>
      </trkpt>
      <trkpt lat="44.82641" lon="6.26068">
        <ele>1389</ele>
        <time>2017-05-09T09:12:00Z</time>
      </trkpt>
      <trkpt lat="44.82641" lon="6.26082">
        <ele>1392</ele>
        <time>2017-05-09T09:12:20Z</time>
      </trkpt>
      <trkpt lat="44.82642" lon="6.26084">
        <ele>1392</ele>
        <time>2017-05-09T09:12:30Z</time>
      </trkpt>
      <trkpt lat="44.82643" lon="6.26079">
        <ele>1392</ele>
        <time>2017-05-09T09:12:45Z</time>
      </trkpt>
      <trkpt lat="44.82654" lon="6.26075">
        <ele>1396</ele>
        <time>2017-05-09T09:13:15Z</time>
      </trkpt>
      <trkpt lat="44.82657" lon="6.26069">
        <ele>1397</ele>
        <time>2017-05-09T09:13:30Z</time>
      </trkpt>
      <trkpt lat="44.82655" lon="6.2607">
        <ele>1396</ele>
        <time>2017-05-09T09:13:35Z</time>
      </trkpt>
      <trkpt lat="44.82661" lon="6.26095">
        <ele>1402</ele>
        <time>2017-05-09T09:14:15Z</time>
      </trkpt>
      <trkpt lat="44.82659" lon="6.26101">
        <ele>1402</ele>
        <time>2017-05-09T09:14:25Z</time>
      </trkpt>
      <trkpt lat="44.82659" lon="6.26106">
        <ele>1403</ele>
        <time>2017-05-09T09:15:05Z</time>
      </trkpt>
      <trkpt lat="44.82658" lon="6.26099">
        <ele>1402</ele>
        <time>2017-05-09T09:15:55Z</time>
      </trkpt>
      <trkpt lat="44.82667" lon="6.26096">
        <ele>1405</ele>
        <time>2017-05-09T09:16:05Z</time>
      </trkpt>
      <trkpt lat="44.82676" lon="6.26101">
        <ele>1410</ele>
        <time>2017-05-09T09:16:15Z</time>
      </trkpt>
      <trkpt lat="44.82684" lon="6.26091">
        <ele>1412</ele>
        <time>2017-05-09T09:16:30Z</time>
      </trkpt>
      <trkpt lat="44.82683" lon="6.26087">
        <ele>1411</ele>
        <time>2017-05-09T09:16:35Z</time>
      </trkpt>
      <trkpt lat="44.82673" lon="6.26103">
        <ele>1409</ele>
        <time>2017-05-09T09:16:50Z</time>
      </trkpt>
      <trkpt lat="44.82653" lon="6.26101">
        <ele>1400</ele>
        <time>2017-05-09T09:17:10Z</time>
      </trkpt>
      <trkpt lat="44.82655" lon="6.26103">
        <ele>1401</ele>
        <time>2017-05-09T09:17:40Z</time>
      </trkpt>
      <trkpt lat="44.82655" lon="6.26103">
        <ele>1401</ele>
        <time>2017-05-09T09:17:45Z</time>
      </trkpt>
      <trkpt lat="44.82655" lon="6.26102">
        <ele>1401</ele>
        <time>2017-05-09T09:17:55Z</time>
      </trkpt>
      <trkpt lat="44.82654" lon="6.26103">
        <ele>1400</ele>
        <time>2017-05-09T09:18:10Z</time>
      </trkpt>
      <trkpt lat="44.82654" lon="6.26104">
        <ele>1401</ele>
        <time>2017-05-09T09:18:25Z</time>
      </trkpt>
      <trkpt lat="44.82653" lon="6.26104">
        <ele>1400</ele>
        <time>2017-05-09T09:18:40Z</time>
      </trkpt>
      <trkpt lat="44.82655" lon="6.26124">
        <ele>1404</ele>
        <time>2017-05-09T09:19:50Z</time>
      </trkpt>
      <trkpt lat="44.82657" lon="6.26133">
        <ele>1406</ele>
        <time>2017-05-09T09:20:00Z</time>
      </trkpt>
      <trkpt lat="44.82657" lon="6.26145">
        <ele>1408</ele>
        <time>2017-05-09T09:20:10Z</time>
      </trkpt>
      <trkpt lat="44.82665" lon="6.26163">
        <ele>1412</ele>
        <time>2017-05-09T09:20:35Z</time>
      </trkpt>
      <trkpt lat="44.82673" lon="6.26171">
        <ele>1416</ele>
        <time>2017-05-09T09:20:50Z</time>
      </trkpt>
      <trkpt lat="44.82682" lon="6.26187">
        <ele>1419</ele>
        <time>2017-05-09T09:21:15Z</time>
      </trkpt>
      <trkpt lat="44.82686" lon="6.26197">
        <ele>1421</ele>
        <time>2017-05-09T09:21:25Z</time>
      </trkpt>
      <trkpt lat="44.8269" lon="6.26224">
        <ele>1422</ele>
        <time>2017-05-09T09:21:50Z</time>
      </trkpt>
      <trkpt lat="44.82686" lon="6.26255">
        <ele>1416</ele>
        <time>2017-05-09T09:22:25Z</time>
      </trkpt>
      <trkpt lat="44.82683" lon="6.26263">
        <ele>1414</ele>
        <time>2017-05-09T09:22:35Z</time>
      </trkpt>
      <trkpt lat="44.82689" lon="6.26292">
        <ele>1414</ele>
        <time>2017-05-09T09:23:00Z</time>
      </trkpt>
      <trkpt lat="44.82699" lon="6.26321">
        <ele>1415</ele>
        <time>2017-05-09T09:23:30Z</time>
      </trkpt>
      <trkpt lat="44.82701" lon="6.26334">
        <ele>1414</ele>
        <time>2017-05-09T09:23:45Z</time>
      </trkpt>
      <trkpt lat="44.82701" lon="6.26351">
        <ele>1412</ele>
        <time>2017-05-09T09:24:00Z</time>
      </trkpt>
      <trkpt lat="44.82724" lon="6.26387">
        <ele>1415</ele>
        <time>2017-05-09T09:24:45Z</time>
      </trkpt>
      <trkpt lat="44.82733" lon="6.26398">
        <ele>1417</ele>
        <time>2017-05-09T09:25:00Z</time>
      </trkpt>
      <trkpt lat="44.82735" lon="6.26408">
        <ele>1416</ele>
        <time>2017-05-09T09:25:15Z</time>
      </trkpt>
      <trkpt lat="44.82739" lon="6.26418">
        <ele>1416</ele>
        <time>2017-05-09T09:25:25Z</time>
      </trkpt>
      <trkpt lat="44.82738" lon="6.26436">
        <ele>1414</ele>
        <time>2017-05-09T09:25:40Z</time>
      </trkpt>
      <trkpt lat="44.8274" lon="6.26448">
        <ele>1413</ele>
        <time>2017-05-09T09:25:50Z</time>
      </trkpt>
      <trkpt lat="44.82737" lon="6.26459">
        <ele>1411</ele>
        <time>2017-05-09T09:26:15Z</time>
      </trkpt>
      <trkpt lat="44.82737" lon="6.26471">
        <ele>1410</ele>
        <time>2017-05-09T09:26:25Z</time>
      </trkpt>
      <trkpt lat="44.82732" lon="6.26482">
        <ele>1407</ele>
        <time>2017-05-09T09:27:20Z</time>
      </trkpt>
      <trkpt lat="44.82731" lon="6.26494">
        <ele>1405</ele>
        <time>2017-05-09T09:27:30Z</time>
      </trkpt>
      <trkpt lat="44.82734" lon="6.26515">
        <ele>1405</ele>
        <time>2017-05-09T09:27:45Z</time>
      </trkpt>
      <trkpt lat="44.82736" lon="6.26527">
        <ele>1405</ele>
        <time>2017-05-09T09:28:00Z</time>
      </trkpt>
      <trkpt lat="44.82746" lon="6.26542">
        <ele>1408</ele>
        <time>2017-05-09T09:28:20Z</time>
      </trkpt>
      <trkpt lat="44.82742" lon="6.26554">
        <ele>1405</ele>
        <time>2017-05-09T09:28:30Z</time>
      </trkpt>
      <trkpt lat="44.82747" lon="6.2658">
        <ele>1406</ele>
        <time>2017-05-09T09:29:00Z</time>
      </trkpt>
      <trkpt lat="44.8275" lon="6.26597">
        <ele>1407</ele>
        <time>2017-05-09T09:29:15Z</time>
      </trkpt>
      <trkpt lat="44.82761" lon="6.26618">
        <ele>1411</ele>
        <time>2017-05-09T09:29:45Z</time>
      </trkpt>
      <trkpt lat="44.82764" lon="6.26659">
        <ele>1413</ele>
        <time>2017-05-09T09:30:30Z</time>
      </trkpt>
      <trkpt lat="44.82774" lon="6.26687">
        <ele>1418</ele>
        <time>2017-05-09T09:31:15Z</time>
      </trkpt>
      <trkpt lat="44.8278" lon="6.26698">
        <ele>1421</ele>
        <time>2017-05-09T09:31:35Z</time>
      </trkpt>
      <trkpt lat="44.82781" lon="6.26709">
        <ele>1421</ele>
        <time>2017-05-09T09:31:50Z</time>
      </trkpt>
      <trkpt lat="44.82784" lon="6.26722">
        <ele>1422</ele>
        <time>2017-05-09T09:32:10Z</time>
      </trkpt>
      <trkpt lat="44.82793" lon="6.26742">
        <ele>1425</ele>
        <time>2017-05-09T09:33:00Z</time>
      </trkpt>
      <trkpt lat="44.82796" lon="6.26745">
        <ele>1426</ele>
        <time>2017-05-09T09:33:05Z</time>
      </trkpt>
      <trkpt lat="44.82798" lon="6.26764">
        <ele>1427</ele>
        <time>2017-05-09T09:33:25Z</time>
      </trkpt>
      <trkpt lat="44.82799" lon="6.26768">
        <ele>1427</ele>
        <time>2017-05-09T09:33:30Z</time>
      </trkpt>
      <trkpt lat="44.82807" lon="6.26775">
        <ele>1431</ele>
        <time>2017-05-09T09:33:55Z</time>
      </trkpt>
      <trkpt lat="44.82819" lon="6.26781">
        <ele>1435</ele>
        <time>2017-05-09T09:34:10Z</time>
      </trkpt>
      <trkpt lat="44.82821" lon="6.26785">
        <ele>1436</ele>
        <time>2017-05-09T09:34:20Z</time>
      </trkpt>
      <trkpt lat="44.82821" lon="6.26791">
        <ele>1435</ele>
        <time>2017-05-09T09:34:35Z</time>
      </trkpt>
      <trkpt lat="44.82823" lon="6.26795">
        <ele>1435</ele>
        <time>2017-05-09T09:34:55Z</time>
      </trkpt>
      <trkpt lat="44.82808" lon="6.26814">
        <ele>1426</ele>
        <time>2017-05-09T09:35:30Z</time>
      </trkpt>
      <trkpt lat="44.82809" lon="6.26829">
        <ele>1426</ele>
        <time>2017-05-09T09:35:45Z</time>
      </trkpt>
      <trkpt lat="44.82815" lon="6.26843">
        <ele>1426</ele>
        <time>2017-05-09T09:36:00Z</time>
      </trkpt>
      <trkpt lat="44.8282" lon="6.26866">
        <ele>1425</ele>
        <time>2017-05-09T09:36:25Z</time>
      </trkpt>
      <trkpt lat="44.82845" lon="6.26877">
        <ele>1437</ele>
        <time>2017-05-09T09:37:00Z</time>
      </trkpt>
      <trkpt lat="44.82848" lon="6.2688">
        <ele>1438</ele>
        <time>2017-05-09T09:37:05Z</time>
      </trkpt>
      <trkpt lat="44.8285" lon="6.26887">
        <ele>1438</ele>
        <time>2017-05-09T09:37:15Z</time>
      </trkpt>
      <trkpt lat="44.82847" lon="6.2691">
        <ele>1434</ele>
        <time>2017-05-09T09:38:05Z</time>
      </trkpt>
      <trkpt lat="44.82865" lon="6.26976">
        <ele>1433</ele>
        <time>2017-05-09T09:38:55Z</time>
      </trkpt>
      <trkpt lat="44.8288" lon="6.26998">
        <ele>1439</ele>
        <time>2017-05-09T09:39:20Z</time>
      </trkpt>
      <trkpt lat="44.82884" lon="6.27012">
        <ele>1440</ele>
        <time>2017-05-09T09:39:30Z</time>
      </trkpt>
      <trkpt lat="44.82879" lon="6.27028">
        <ele>1435</ele>
        <time>2017-05-09T09:39:45Z</time>
      </trkpt>
      <trkpt lat="44.82882" lon="6.27058">
        <ele>1433</ele>
        <time>2017-05-09T09:40:05Z</time>
      </trkpt>
      <trkpt lat="44.82888" lon="6.27067">
        <ele>1435</ele>
        <time>2017-05-09T09:40:15Z</time>
      </trkpt>
      <trkpt lat="44.82902" lon="6.27072">
        <ele>1443</ele>
        <time>2017-05-09T09:40:50Z</time>
      </trkpt>
      <trkpt lat="44.82907" lon="6.2708">
        <ele>1444</ele>
        <time>2017-05-09T09:41:00Z</time>
      </trkpt>
      <trkpt lat="44.82907" lon="6.27085">
        <ele>1443</ele>
        <time>2017-05-09T09:41:30Z</time>
      </trkpt>
      <trkpt lat="44.82906" lon="6.27088">
        <ele>1442</ele>
        <time>2017-05-09T09:41:35Z</time>
      </trkpt>
      <trkpt lat="44.82898" lon="6.27096">
        <ele>1437</ele>
        <time>2017-05-09T09:41:45Z</time>
      </trkpt>
      <trkpt lat="44.82893" lon="6.27111">
        <ele>1432</ele>
        <time>2017-05-09T09:42:00Z</time>
      </trkpt>
      <trkpt lat="44.82899" lon="6.27142">
        <ele>1431</ele>
        <time>2017-05-09T09:42:30Z</time>
      </trkpt>
      <trkpt lat="44.82895" lon="6.27167">
        <ele>1426</ele>
        <time>2017-05-09T09:42:55Z</time>
      </trkpt>
      <trkpt lat="44.82901" lon="6.27184">
        <ele>1427</ele>
        <time>2017-05-09T09:43:15Z</time>
      </trkpt>
      <trkpt lat="44.82897" lon="6.27194">
        <ele>1424</ele>
        <time>2017-05-09T09:43:30Z</time>
      </trkpt>
      <trkpt lat="44.82897" lon="6.27205">
        <ele>1422</ele>
        <time>2017-05-09T09:44:00Z</time>
      </trkpt>
      <trkpt lat="44.82898" lon="6.27233">
        <ele>1419</ele>
        <time>2017-05-09T09:44:30Z</time>
      </trkpt>
      <trkpt lat="44.82895" lon="6.27247">
        <ele>1416</ele>
        <time>2017-05-09T09:44:50Z</time>
      </trkpt>
      <trkpt lat="44.82891" lon="6.27254">
        <ele>1414</ele>
        <time>2017-05-09T09:45:00Z</time>
      </trkpt>
      <trkpt lat="44.82893" lon="6.2726">
        <ele>1414</ele>
        <time>2017-05-09T09:45:05Z</time>
      </trkpt>
      <trkpt lat="44.82897" lon="6.27271">
        <ele>1415</ele>
        <time>2017-05-09T09:45:15Z</time>
      </trkpt>
      <trkpt lat="44.82899" lon="6.27293">
        <ele>1414</ele>
        <time>2017-05-09T09:45:40Z</time>
      </trkpt>
      <trkpt lat="44.82898" lon="6.27301">
        <ele>1413</ele>
        <time>2017-05-09T09:45:50Z</time>
      </trkpt>
      <trkpt lat="44.82903" lon="6.27323">
        <ele>1412</ele>
        <time>2017-05-09T09:46:10Z</time>
      </trkpt>
      <trkpt lat="44.82903" lon="6.27372">
        <ele>1409</ele>
        <time>2017-05-09T09:46:50Z</time>
      </trkpt>
      <trkpt lat="44.82905" lon="6.27383">
        <ele>1409</ele>
        <time>2017-05-09T09:47:00Z</time>
      </trkpt>
      <trkpt lat="44.82905" lon="6.27404">
        <ele>1408</ele>
        <time>2017-05-09T09:47:45Z</time>
      </trkpt>
      <trkpt lat="44.82903" lon="6.27428">
        <ele>1406</ele>
        <time>2017-05-09T09:48:10Z</time>
      </trkpt>
      <trkpt lat="44.82905" lon="6.27437">
        <ele>1407</ele>
        <time>2017-05-09T09:48:20Z</time>
      </trkpt>
      <trkpt lat="44.82903" lon="6.27454">
        <ele>1405</ele>
        <time>2017-05-09T09:48:35Z</time>
      </trkpt>
      <trkpt lat="44.82906" lon="6.27471">
        <ele>1406</ele>
        <time>2017-05-09T09:48:50Z</time>
      </trkpt>
      <trkpt lat="44.82912" lon="6.2749">
        <ele>1408</ele>
        <time>2017-05-09T09:49:05Z</time>
      </trkpt>
      <trkpt lat="44.82917" lon="6.27522">
        <ele>1408</ele>
        <time>2017-05-09T09:49:35Z</time>
      </trkpt>
      <trkpt lat="44.82923" lon="6.27534">
        <ele>1410</ele>
        <time>2017-05-09T09:49:50Z</time>
      </trkpt>
      <trkpt lat="44.82923" lon="6.27538">
        <ele>1410</ele>
        <time>2017-05-09T09:49:55Z</time>
      </trkpt>
      <trkpt lat="44.82922" lon="6.27536">
        <ele>1410</ele>
        <time>2017-05-09T09:50:45Z</time>
      </trkpt>
      <trkpt lat="44.8292" lon="6.27539">
        <ele>1409</ele>
        <time>2017-05-09T09:51:05Z</time>
      </trkpt>
      <trkpt lat="44.82921" lon="6.27545">
        <ele>1409</ele>
        <time>2017-05-09T09:51:20Z</time>
      </trkpt>
      <trkpt lat="44.82917" lon="6.2755">
        <ele>1407</ele>
        <time>2017-05-09T09:51:30Z</time>
      </trkpt>
      <trkpt lat="44.82918" lon="6.27535">
        <ele>1408</ele>
        <time>2017-05-09T09:51:50Z</time>
      </trkpt>
      <trkpt lat="44.82917" lon="6.2753">
        <ele>1408</ele>
        <time>2017-05-09T09:51:55Z</time>
      </trkpt>
      <trkpt lat="44.82922" lon="6.27536">
        <ele>1410</ele>
        <time>2017-05-09T09:52:15Z</time>
      </trkpt>
      <trkpt lat="44.82921" lon="6.27538">
        <ele>1409</ele>
        <time>2017-05-09T09:52:50Z</time>
      </trkpt>
      <trkpt lat="44.8292" lon="6.27535">
        <ele>1409</ele>
        <time>2017-05-09T09:53:15Z</time>
      </trkpt>
      <trkpt lat="44.82933" lon="6.27543">
        <ele>1414</ele>
        <time>2017-05-09T09:53:30Z</time>
      </trkpt>
      <trkpt lat="44.82927" lon="6.27538">
        <ele>1412</ele>
        <time>2017-05-09T09:53:55Z</time>
      </trkpt>
      <trkpt lat="44.8292" lon="6.27534">
        <ele>1409</ele>
        <time>2017-05-09T09:54:10Z</time>
      </trkpt>
      <trkpt lat="44.82921" lon="6.27534">
        <ele>1410</ele>
        <time>2017-05-09T09:54:20Z</time>
      </trkpt>
      <trkpt lat="44.82921" lon="6.27537">
        <ele>1410</ele>
        <time>2017-05-09T09:54:45Z</time>
      </trkpt>
      <trkpt lat="44.82923" lon="6.27537">
        <ele>1410</ele>
        <time>2017-05-09T09:55:20Z</time>
      </trkpt>
      <trkpt lat="44.82919" lon="6.27542">
        <ele>1408</ele>
        <time>2017-05-09T09:55:50Z</time>
      </trkpt>
      <trkpt lat="44.82917" lon="6.27547">
        <ele>1407</ele>
        <time>2017-05-09T09:56:00Z</time>
      </trkpt>
      <trkpt lat="44.82921" lon="6.2757">
        <ele>1409</ele>
        <time>2017-05-09T09:56:25Z</time>
      </trkpt>
      <trkpt lat="44.82921" lon="6.276">
        <ele>1408</ele>
        <time>2017-05-09T09:56:50Z</time>
      </trkpt>
      <trkpt lat="44.8292" lon="6.27629">
        <ele>1409</ele>
        <time>2017-05-09T09:57:10Z</time>
      </trkpt>
      <trkpt lat="44.82927" lon="6.27637">
        <ele>1412</ele>
        <time>2017-05-09T09:57:20Z</time>
      </trkpt>
      <trkpt lat="44.82936" lon="6.27662">
        <ele>1416</ele>
        <time>2017-05-09T09:57:45Z</time>
      </trkpt>
      <trkpt lat="44.82937" lon="6.27689">
        <ele>1418</ele>
        <time>2017-05-09T09:58:05Z</time>
      </trkpt>
      <trkpt lat="44.82939" lon="6.27703">
        <ele>1419</ele>
        <time>2017-05-09T09:58:15Z</time>
      </trkpt>
      <trkpt lat="44.82938" lon="6.27726">
        <ele>1420</ele>
        <time>2017-05-09T09:58:30Z</time>
      </trkpt>
      <trkpt lat="44.82941" lon="6.27765">
        <ele>1421</ele>
        <time>2017-05-09T09:58:55Z</time>
      </trkpt>
      <trkpt lat="44.82946" lon="6.27782">
        <ele>1422</ele>
        <time>2017-05-09T09:59:10Z</time>
      </trkpt>
      <trkpt lat="44.82956" lon="6.27794">
        <ele>1424</ele>
        <time>2017-05-09T09:59:25Z</time>
      </trkpt>
      <trkpt lat="44.82955" lon="6.27817">
        <ele>1423</ele>
        <time>2017-05-09T09:59:45Z</time>
      </trkpt>
      <trkpt lat="44.82952" lon="6.27815">
        <ele>1422</ele>
        <time>2017-05-09T10:00:05Z</time>
      </trkpt>
      <trkpt lat="44.82957" lon="6.27839">
        <ele>1422</ele>
        <time>2017-05-09T10:00:35Z</time>
      </trkpt>
      <trkpt lat="44.82963" lon="6.27844">
        <ele>1423</ele>
        <time>2017-05-09T10:00:40Z</time>
      </trkpt>
      <trkpt lat="44.82978" lon="6.27886">
        <ele>1423</ele>
        <time>2017-05-09T10:01:15Z</time>
      </trkpt>
      <trkpt lat="44.82987" lon="6.27897">
        <ele>1426</ele>
        <time>2017-05-09T10:01:30Z</time>
      </trkpt>
      <trkpt lat="44.82982" lon="6.27918">
        <ele>1422</ele>
        <time>2017-05-09T10:01:45Z</time>
      </trkpt>
      <trkpt lat="44.82999" lon="6.27939">
        <ele>1424</ele>
        <time>2017-05-09T10:02:15Z</time>
      </trkpt>
      <trkpt lat="44.83006" lon="6.27949">
        <ele>1425</ele>
        <time>2017-05-09T10:02:25Z</time>
      </trkpt>
      <trkpt lat="44.83022" lon="6.27965">
        <ele>1426</ele>
        <time>2017-05-09T10:02:50Z</time>
      </trkpt>
      <trkpt lat="44.8303" lon="6.27972">
        <ele>1426</ele>
        <time>2017-05-09T10:03:00Z</time>
      </trkpt>
      <trkpt lat="44.83048" lon="6.27979">
        <ele>1429</ele>
        <time>2017-05-09T10:03:20Z</time>
      </trkpt>
      <trkpt lat="44.83086" lon="6.28011">
        <ele>1433</ele>
        <time>2017-05-09T10:04:05Z</time>
      </trkpt>
      <trkpt lat="44.83094" lon="6.28028">
        <ele>1432</ele>
        <time>2017-05-09T10:04:20Z</time>
      </trkpt>
      <trkpt lat="44.83122" lon="6.28051">
        <ele>1437</ele>
        <time>2017-05-09T10:04:55Z</time>
      </trkpt>
      <trkpt lat="44.83135" lon="6.28068">
        <ele>1438</ele>
        <time>2017-05-09T10:05:15Z</time>
      </trkpt>
      <trkpt lat="44.83148" lon="6.2809">
        <ele>1439</ele>
        <time>2017-05-09T10:05:35Z</time>
      </trkpt>
      <trkpt lat="44.83154" lon="6.28108">
        <ele>1439</ele>
        <time>2017-05-09T10:05:50Z</time>
      </trkpt>
      <trkpt lat="44.83158" lon="6.28111">
        <ele>1439</ele>
        <time>2017-05-09T10:05:55Z</time>
      </trkpt>
      <trkpt lat="44.83177" lon="6.28112">
        <ele>1445</ele>
        <time>2017-05-09T10:06:30Z</time>
      </trkpt>
      <trkpt lat="44.83178" lon="6.28125">
        <ele>1443</ele>
        <time>2017-05-09T10:06:45Z</time>
      </trkpt>
      <trkpt lat="44.83182" lon="6.28128">
        <ele>1445</ele>
        <time>2017-05-09T10:06:50Z</time>
      </trkpt>
      <trkpt lat="44.83181" lon="6.28146">
        <ele>1441</ele>
        <time>2017-05-09T10:07:05Z</time>
      </trkpt>
      <trkpt lat="44.83186" lon="6.2817">
        <ele>1443</ele>
        <time>2017-05-09T10:07:30Z</time>
      </trkpt>
      <trkpt lat="44.83192" lon="6.28185">
        <ele>1446</ele>
        <time>2017-05-09T10:07:50Z</time>
      </trkpt>
      <trkpt lat="44.83197" lon="6.28207">
        <ele>1447</ele>
        <time>2017-05-09T10:08:10Z</time>
      </trkpt>
      <trkpt lat="44.83205" lon="6.28231">
        <ele>1451</ele>
        <time>2017-05-09T10:08:30Z</time>
      </trkpt>
      <trkpt lat="44.83207" lon="6.28262">
        <ele>1452</ele>
        <time>2017-05-09T10:08:55Z</time>
      </trkpt>
      <trkpt lat="44.83208" lon="6.28283">
        <ele>1453</ele>
        <time>2017-05-09T10:09:10Z</time>
      </trkpt>
      <trkpt lat="44.83207" lon="6.28292">
        <ele>1452</ele>
        <time>2017-05-09T10:09:25Z</time>
      </trkpt>
      <trkpt lat="44.83207" lon="6.28292">
        <ele>1452</ele>
        <time>2017-05-09T10:09:35Z</time>
      </trkpt>
      <trkpt lat="44.83209" lon="6.28293">
        <ele>1453</ele>
        <time>2017-05-09T10:10:00Z</time>
      </trkpt>
      <trkpt lat="44.83216" lon="6.28327">
        <ele>1457</ele>
        <time>2017-05-09T10:10:35Z</time>
      </trkpt>
      <trkpt lat="44.83212" lon="6.28348">
        <ele>1455</ele>
        <time>2017-05-09T10:10:50Z</time>
      </trkpt>
      <trkpt lat="44.83212" lon="6.28349">
        <ele>1455</ele>
        <time>2017-05-09T10:11:00Z</time>
      </trkpt>
      <trkpt lat="44.83211" lon="6.28352">
        <ele>1454</ele>
        <time>2017-05-09T10:11:20Z</time>
      </trkpt>
      <trkpt lat="44.83205" lon="6.28354">
        <ele>1451</ele>
        <time>2017-05-09T10:11:30Z</time>
      </trkpt>
      <trkpt lat="44.83206" lon="6.28356">
        <ele>1451</ele>
        <time>2017-05-09T10:11:55Z</time>
      </trkpt>
      <trkpt lat="44.83187" lon="6.2836">
        <ele>1442</ele>
        <time>2017-05-09T10:12:25Z</time>
      </trkpt>
      <trkpt lat="44.8318" lon="6.28365">
        <ele>1439</ele>
        <time>2017-05-09T10:12:35Z</time>
      </trkpt>
      <trkpt lat="44.83179" lon="6.28364">
        <ele>1438</ele>
        <time>2017-05-09T10:12:50Z</time>
      </trkpt>
      <trkpt lat="44.83177" lon="6.28386">
        <ele>1439</ele>
        <time>2017-05-09T10:13:05Z</time>
      </trkpt>
      <trkpt lat="44.83163" lon="6.28369">
        <ele>1437</ele>
        <time>2017-05-09T10:13:25Z</time>
      </trkpt>
      <trkpt lat="44.83161" lon="6.28362">
        <ele>1437</ele>
        <time>2017-05-09T10:13:35Z</time>
      </trkpt>
      <trkpt lat="44.83166" lon="6.28376">
        <ele>1438</ele>
        <time>2017-05-09T10:13:45Z</time>
      </trkpt>
      <trkpt lat="44.83172" lon="6.284">
        <ele>1439</ele>
        <time>2017-05-09T10:14:15Z</time>
      </trkpt>
      <trkpt lat="44.83167" lon="6.28414">
        <ele>1439</ele>
        <time>2017-05-09T10:14:35Z</time>
      </trkpt>
      <trkpt lat="44.83171" lon="6.28416">
        <ele>1440</ele>
        <time>2017-05-09T10:14:45Z</time>
      </trkpt>
      <trkpt lat="44.83173" lon="6.28417">
        <ele>1440</ele>
        <time>2017-05-09T10:14:50Z</time>
      </trkpt>
      <trkpt lat="44.83172" lon="6.28413">
        <ele>1440</ele>
        <time>2017-05-09T10:15:15Z</time>
      </trkpt>
      <trkpt lat="44.83173" lon="6.28414">
        <ele>1440</ele>
        <time>2017-05-09T10:15:45Z</time>
      </trkpt>
      <trkpt lat="44.83176" lon="6.28413">
        <ele>1440</ele>
        <time>2017-05-09T10:16:05Z</time>
      </trkpt>
      <trkpt lat="44.83175" lon="6.28412">
        <ele>1440</ele>
        <time>2017-05-09T10:16:30Z</time>
      </trkpt>
      <trkpt lat="44.83175" lon="6.28418">
        <ele>1440</ele>
        <time>2017-05-09T10:16:45Z</time>
      </trkpt>
      <trkpt lat="44.83177" lon="6.28421">
        <ele>1440</ele>
        <time>2017-05-09T10:17:10Z</time>
      </trkpt>
      <trkpt lat="44.83178" lon="6.28421">
        <ele>1441</ele>
        <time>2017-05-09T10:17:35Z</time>
      </trkpt>
      <trkpt lat="44.83166" lon="6.28425">
        <ele>1441</ele>
        <time>2017-05-09T10:18:10Z</time>
      </trkpt>
      <trkpt lat="44.83165" lon="6.2843">
        <ele>1442</ele>
        <time>2017-05-09T10:18:25Z</time>
      </trkpt>
      <trkpt lat="44.83156" lon="6.28431">
        <ele>1442</ele>
        <time>2017-05-09T10:18:40Z</time>
      </trkpt>
      <trkpt lat="44.83158" lon="6.28433">
        <ele>1442</ele>
        <time>2017-05-09T10:18:50Z</time>
      </trkpt>
      <trkpt lat="44.83157" lon="6.28432">
        <ele>1442</ele>
        <time>2017-05-09T10:19:05Z</time>
      </trkpt>
      <trkpt lat="44.83154" lon="6.28436">
        <ele>1442</ele>
        <time>2017-05-09T10:19:40Z</time>
      </trkpt>
      <trkpt lat="44.83153" lon="6.28435">
        <ele>1442</ele>
        <time>2017-05-09T10:19:55Z</time>
      </trkpt>
      <trkpt lat="44.83152" lon="6.28435">
        <ele>1442</ele>
        <time>2017-05-09T10:20:25Z</time>
      </trkpt>
      <trkpt lat="44.83155" lon="6.28434">
        <ele>1442</ele>
        <time>2017-05-09T10:20:45Z</time>
      </trkpt>
      <trkpt lat="44.83155" lon="6.28432">
        <ele>1442</ele>
        <time>2017-05-09T10:21:15Z</time>
      </trkpt>
      <trkpt lat="44.83156" lon="6.28432">
        <ele>1442</ele>
        <time>2017-05-09T10:21:25Z</time>
      </trkpt>
      <trkpt lat="44.83159" lon="6.28437">
        <ele>1443</ele>
        <time>2017-05-09T10:21:35Z</time>
      </trkpt>
      <trkpt lat="44.83156" lon="6.28436">
        <ele>1442</ele>
        <time>2017-05-09T10:21:45Z</time>
      </trkpt>
      <trkpt lat="44.83155" lon="6.28446">
        <ele>1444</ele>
        <time>2017-05-09T10:21:55Z</time>
      </trkpt>
      <trkpt lat="44.83138" lon="6.28479">
        <ele>1448</ele>
        <time>2017-05-09T10:22:35Z</time>
      </trkpt>
      <trkpt lat="44.83141" lon="6.28486">
        <ele>1450</ele>
        <time>2017-05-09T10:22:55Z</time>
      </trkpt>
      <trkpt lat="44.83131" lon="6.28497">
        <ele>1451</ele>
        <time>2017-05-09T10:23:20Z</time>
      </trkpt>
      <trkpt lat="44.83127" lon="6.28504">
        <ele>1452</ele>
        <time>2017-05-09T10:23:30Z</time>
      </trkpt>
      <trkpt lat="44.83123" lon="6.28515">
        <ele>1453</ele>
        <time>2017-05-09T10:23:50Z</time>
      </trkpt>
      <trkpt lat="44.83124" lon="6.28522">
        <ele>1455</ele>
        <time>2017-05-09T10:24:20Z</time>
      </trkpt>
      <trkpt lat="44.83123" lon="6.28521">
        <ele>1454</ele>
        <time>2017-05-09T10:24:30Z</time>
      </trkpt>
      <trkpt lat="44.83114" lon="6.28525">
        <ele>1453</ele>
        <time>2017-05-09T10:25:00Z</time>
      </trkpt>
      <trkpt lat="44.83114" lon="6.28535">
        <ele>1455</ele>
        <time>2017-05-09T10:25:30Z</time>
      </trkpt>
      <trkpt lat="44.83116" lon="6.28536">
        <ele>1456</ele>
        <time>2017-05-09T10:25:50Z</time>
      </trkpt>
      <trkpt lat="44.83119" lon="6.28545">
        <ele>1458</ele>
        <time>2017-05-09T10:26:10Z</time>
      </trkpt>
      <trkpt lat="44.83118" lon="6.28551">
        <ele>1458</ele>
        <time>2017-05-09T10:26:25Z</time>
      </trkpt>
      <trkpt lat="44.83118" lon="6.28551">
        <ele>1458</ele>
        <time>2017-05-09T10:26:45Z</time>
      </trkpt>
      <trkpt lat="44.83121" lon="6.28549">
        <ele>1459</ele>
        <time>2017-05-09T10:27:05Z</time>
      </trkpt>
      <trkpt lat="44.83122" lon="6.28548">
        <ele>1459</ele>
        <time>2017-05-09T10:27:10Z</time>
      </trkpt>
      <trkpt lat="44.83121" lon="6.28549">
        <ele>1459</ele>
        <time>2017-05-09T10:27:40Z</time>
      </trkpt>
      <trkpt lat="44.83121" lon="6.28548">
        <ele>1458</ele>
        <time>2017-05-09T10:28:25Z</time>
      </trkpt>
      <trkpt lat="44.83123" lon="6.2855">
        <ele>1459</ele>
        <time>2017-05-09T10:28:45Z</time>
      </trkpt>
      <trkpt lat="44.83124" lon="6.28549">
        <ele>1459</ele>
        <time>2017-05-09T10:29:00Z</time>
      </trkpt>
      <trkpt lat="44.83127" lon="6.28552">
        <ele>1460</ele>
        <time>2017-05-09T10:29:10Z</time>
      </trkpt>
      <trkpt lat="44.83127" lon="6.28555">
        <ele>1461</ele>
        <time>2017-05-09T10:29:15Z</time>
      </trkpt>
      <trkpt lat="44.83123" lon="6.28559">
        <ele>1461</ele>
        <time>2017-05-09T10:29:35Z</time>
      </trkpt>
      <trkpt lat="44.83122" lon="6.28565">
        <ele>1462</ele>
        <time>2017-05-09T10:29:55Z</time>
      </trkpt>
      <trkpt lat="44.83122" lon="6.28563">
        <ele>1461</ele>
        <time>2017-05-09T10:30:00Z</time>
      </trkpt>
      <trkpt lat="44.83122" lon="6.28564">
        <ele>1461</ele>
        <time>2017-05-09T10:30:05Z</time>
      </trkpt>
      <trkpt lat="44.83122" lon="6.28564">
        <ele>1461</ele>
        <time>2017-05-09T10:30:15Z</time>
      </trkpt>
      <trkpt lat="44.83123" lon="6.28564">
        <ele>1462</ele>
        <time>2017-05-09T10:30:30Z</time>
      </trkpt>
      <trkpt lat="44.83124" lon="6.28564">
        <ele>1462</ele>
        <time>2017-05-09T10:30:35Z</time>
      </trkpt>
      <trkpt lat="44.83124" lon="6.28564">
        <ele>1462</ele>
        <time>2017-05-09T10:30:45Z</time>
      </trkpt>
      <trkpt lat="44.83124" lon="6.28564">
        <ele>1462</ele>
        <time>2017-05-09T10:31:15Z</time>
      </trkpt>
      <trkpt lat="44.83124" lon="6.28564">
        <ele>1462</ele>
        <time>2017-05-09T10:32:15Z</time>
      </trkpt>
      <trkpt lat="44.83124" lon="6.28564">
        <ele>1462</ele>
        <time>2017-05-09T10:32:50Z</time>
      </trkpt>
      <trkpt lat="44.83124" lon="6.28564">
        <ele>1462</ele>
        <time>2017-05-09T10:32:55Z</time>
      </trkpt>
      <trkpt lat="44.83124" lon="6.28564">
        <ele>1462</ele>
        <time>2017-05-09T10:33:55Z</time>
      </trkpt>
      <trkpt lat="44.83124" lon="6.28564">
        <ele>1462</ele>
        <time>2017-05-09T10:34:15Z</time>
      </trkpt>
      <trkpt lat="44.83124" lon="6.28564">
        <ele>1462</ele>
        <time>2017-05-09T10:35:00Z</time>
      </trkpt>
      <trkpt lat="44.83124" lon="6.28565">
        <ele>1462</ele>
        <time>2017-05-09T10:35:15Z</time>
      </trkpt>
      <trkpt lat="44.83124" lon="6.28564">
        <ele>1462</ele>
        <time>2017-05-09T10:35:30Z</time>
      </trkpt>
      <trkpt lat="44.83123" lon="6.28564">
        <ele>1462</ele>
        <time>2017-05-09T10:36:00Z</time>
      </trkpt>
      <trkpt lat="44.83123" lon="6.28564">
        <ele>1462</ele>
        <time>2017-05-09T10:36:10Z</time>
      </trkpt>
      <trkpt lat="44.83123" lon="6.28564">
        <ele>1462</ele>
        <time>2017-05-09T10:36:30Z</time>
      </trkpt>
      <trkpt lat="44.83123" lon="6.28564">
        <ele>1462</ele>
        <time>2017-05-09T10:36:40Z</time>
      </trkpt>
      <trkpt lat="44.83123" lon="6.28564">
        <ele>1462</ele>
        <time>2017-05-09T10:36:45Z</time>
      </trkpt>
      <trkpt lat="44.83123" lon="6.28564">
        <ele>1462</ele>
        <time>2017-05-09T10:38:10Z</time>
      </trkpt>
      <trkpt lat="44.83123" lon="6.28564">
        <ele>1462</ele>
        <time>2017-05-09T10:38:15Z</time>
      </trkpt>
      <trkpt lat="44.83123" lon="6.28564">
        <ele>1462</ele>
        <time>2017-05-09T10:38:35Z</time>
      </trkpt>
      <trkpt lat="44.83123" lon="6.28564">
        <ele>1462</ele>
        <time>2017-05-09T10:38:50Z</time>
      </trkpt>
      <trkpt lat="44.83123" lon="6.28564">
        <ele>1462</ele>
        <time>2017-05-09T10:38:55Z</time>
      </trkpt>
      <trkpt lat="44.83123" lon="6.28564">
        <ele>1462</ele>
        <time>2017-05-09T10:39:15Z</time>
      </trkpt>
      <trkpt lat="44.83123" lon="6.28564">
        <ele>1462</ele>
        <time>2017-05-09T10:39:20Z</time>
      </trkpt>
      <trkpt lat="44.83123" lon="6.28564">
        <ele>1462</ele>
        <time>2017-05-09T10:40:35Z</time>
      </trkpt>
      <trkpt lat="44.83123" lon="6.28564">
        <ele>1462</ele>
        <time>2017-05-09T10:40:40Z</time>
      </trkpt>
      <trkpt lat="44.83123" lon="6.28563">
        <ele>1462</ele>
        <time>2017-05-09T10:41:20Z</time>
      </trkpt>
      <trkpt lat="44.83123" lon="6.28563">
        <ele>1462</ele>
        <time>2017-05-09T10:41:40Z</time>
      </trkpt>
      <trkpt lat="44.83123" lon="6.28563">
        <ele>1462</ele>
        <time>2017-05-09T10:42:00Z</time>
      </trkpt>
      <trkpt lat="44.83123" lon="6.28563">
        <ele>1462</ele>
        <time>2017-05-09T10:42:05Z</time>
      </trkpt>
      <trkpt lat="44.83124" lon="6.28563">
        <ele>1462</ele>
        <time>2017-05-09T10:42:35Z</time>
      </trkpt>
      <trkpt lat="44.83124" lon="6.28563">
        <ele>1462</ele>
        <time>2017-05-09T10:42:50Z</time>
      </trkpt>
      <trkpt lat="44.83124" lon="6.28563">
        <ele>1462</ele>
        <time>2017-05-09T10:42:55Z</time>
      </trkpt>
      <trkpt lat="44.83124" lon="6.28563">
        <ele>1462</ele>
        <time>2017-05-09T10:43:50Z</time>
      </trkpt>
      <trkpt lat="44.83124" lon="6.28563">
        <ele>1462</ele>
        <time>2017-05-09T10:44:10Z</time>
      </trkpt>
      <trkpt lat="44.83124" lon="6.28562">
        <ele>1462</ele>
        <time>2017-05-09T10:44:45Z</time>
      </trkpt>
      <trkpt lat="44.83124" lon="6.28562">
        <ele>1462</ele>
        <time>2017-05-09T10:44:50Z</time>
      </trkpt>
      <trkpt lat="44.83124" lon="6.28562">
        <ele>1462</ele>
        <time>2017-05-09T10:45:50Z</time>
      </trkpt>
      <trkpt lat="44.83124" lon="6.28562">
        <ele>1462</ele>
        <time>2017-05-09T10:45:55Z</time>
      </trkpt>
      <trkpt lat="44.83124" lon="6.28562">
        <ele>1462</ele>
        <time>2017-05-09T10:46:20Z</time>
      </trkpt>
      <trkpt lat="44.83124" lon="6.28561">
        <ele>1462</ele>
        <time>2017-05-09T10:46:25Z</time>
      </trkpt>
      <trkpt lat="44.83122" lon="6.2856">
        <ele>1461</ele>
        <time>2017-05-09T10:47:05Z</time>
      </trkpt>
      <trkpt lat="44.83122" lon="6.2856">
        <ele>1461</ele>
        <time>2017-05-09T10:47:15Z</time>
      </trkpt>
      <trkpt lat="44.83122" lon="6.2856">
        <ele>1461</ele>
        <time>2017-05-09T10:47:20Z</time>
      </trkpt>
      <trkpt lat="44.8312" lon="6.28559">
        <ele>1460</ele>
        <time>2017-05-09T10:48:00Z</time>
      </trkpt>
      <trkpt lat="44.8312" lon="6.28559">
        <ele>1460</ele>
        <time>2017-05-09T10:48:10Z</time>
      </trkpt>
      <trkpt lat="44.8312" lon="6.28559">
        <ele>1460</ele>
        <time>2017-05-09T10:48:20Z</time>
      </trkpt>
      <trkpt lat="44.8312" lon="6.28559">
        <ele>1460</ele>
        <time>2017-05-09T10:48:30Z</time>
      </trkpt>
      <trkpt lat="44.83119" lon="6.28558">
        <ele>1460</ele>
        <time>2017-05-09T10:48:35Z</time>
      </trkpt>
      <trkpt lat="44.83119" lon="6.28557">
        <ele>1460</ele>
        <time>2017-05-09T10:49:00Z</time>
      </trkpt>
      <trkpt lat="44.83117" lon="6.28556">
        <ele>1459</ele>
        <time>2017-05-09T10:50:10Z</time>
      </trkpt>
      <trkpt lat="44.83117" lon="6.28556">
        <ele>1459</ele>
        <time>2017-05-09T10:50:20Z</time>
      </trkpt>
      <trkpt lat="44.83117" lon="6.28555">
        <ele>1459</ele>
        <time>2017-05-09T10:50:30Z</time>
      </trkpt>
      <trkpt lat="44.83116" lon="6.28555">
        <ele>1459</ele>
        <time>2017-05-09T10:50:35Z</time>
      </trkpt>
      <trkpt lat="44.83111" lon="6.28554">
        <ele>1457</ele>
        <time>2017-05-09T10:51:05Z</time>
      </trkpt>
      <trkpt lat="44.83109" lon="6.28552">
        <ele>1457</ele>
        <time>2017-05-09T10:51:20Z</time>
      </trkpt>
      <trkpt lat="44.83108" lon="6.28552">
        <ele>1457</ele>
        <time>2017-05-09T10:51:30Z</time>
      </trkpt>
      <trkpt lat="44.83107" lon="6.28551">
        <ele>1457</ele>
        <time>2017-05-09T10:51:50Z</time>
      </trkpt>
      <trkpt lat="44.83105" lon="6.28553">
        <ele>1457</ele>
        <time>2017-05-09T10:52:05Z</time>
      </trkpt>
      <trkpt lat="44.83104" lon="6.28553">
        <ele>1457</ele>
        <time>2017-05-09T10:52:25Z</time>
      </trkpt>
      <trkpt lat="44.83104" lon="6.28555">
        <ele>1458</ele>
        <time>2017-05-09T10:52:45Z</time>
      </trkpt>
      <trkpt lat="44.83103" lon="6.28557">
        <ele>1458</ele>
        <time>2017-05-09T10:53:05Z</time>
      </trkpt>
      <trkpt lat="44.83103" lon="6.2856">
        <ele>1459</ele>
        <time>2017-05-09T10:53:35Z</time>
      </trkpt>
      <trkpt lat="44.83102" lon="6.2856">
        <ele>1459</ele>
        <time>2017-05-09T10:53:55Z</time>
      </trkpt>
      <trkpt lat="44.83102" lon="6.28559">
        <ele>1459</ele>
        <time>2017-05-09T10:54:10Z</time>
      </trkpt>
      <trkpt lat="44.83102" lon="6.28559">
        <ele>1459</ele>
        <time>2017-05-09T10:54:30Z</time>
      </trkpt>
      <trkpt lat="44.83101" lon="6.28558">
        <ele>1459</ele>
        <time>2017-05-09T10:54:50Z</time>
      </trkpt>
      <trkpt lat="44.83101" lon="6.28557">
        <ele>1459</ele>
        <time>2017-05-09T10:55:10Z</time>
      </trkpt>
      <trkpt lat="44.831" lon="6.28557">
        <ele>1459</ele>
        <time>2017-05-09T10:55:25Z</time>
      </trkpt>
      <trkpt lat="44.83099" lon="6.28555">
        <ele>1459</ele>
        <time>2017-05-09T10:55:45Z</time>
      </trkpt>
      <trkpt lat="44.83097" lon="6.28554">
        <ele>1459</ele>
        <time>2017-05-09T10:56:05Z</time>
      </trkpt>
      <trkpt lat="44.83097" lon="6.28552">
        <ele>1459</ele>
        <time>2017-05-09T10:56:15Z</time>
      </trkpt>
      <trkpt lat="44.83097" lon="6.28545">
        <ele>1457</ele>
        <time>2017-05-09T10:56:25Z</time>
      </trkpt>
      <trkpt lat="44.83097" lon="6.28545">
        <ele>1457</ele>
        <time>2017-05-09T10:56:45Z</time>
      </trkpt>
      <trkpt lat="44.83103" lon="6.28552">
        <ele>1457</ele>
        <time>2017-05-09T10:57:10Z</time>
      </trkpt>
      <trkpt lat="44.83107" lon="6.28559">
        <ele>1458</ele>
        <time>2017-05-09T10:57:25Z</time>
      </trkpt>
      <trkpt lat="44.83123" lon="6.28559">
        <ele>1461</ele>
        <time>2017-05-09T10:58:00Z</time>
      </trkpt>
      <trkpt lat="44.83157" lon="6.28547">
        <ele>1466</ele>
        <time>2017-05-09T10:58:20Z</time>
      </trkpt>
      <trkpt lat="44.83162" lon="6.28549">
        <ele>1467</ele>
        <time>2017-05-09T10:58:25Z</time>
      </trkpt>
      <trkpt lat="44.83153" lon="6.28555">
        <ele>1467</ele>
        <time>2017-05-09T10:59:00Z</time>
      </trkpt>
      <trkpt lat="44.83155" lon="6.28554">
        <ele>1467</ele>
        <time>2017-05-09T10:59:40Z</time>
      </trkpt>
      <trkpt lat="44.83161" lon="6.2855">
        <ele>1467</ele>
        <time>2017-05-09T10:59:45Z</time>
      </trkpt>
      <trkpt lat="44.8318" lon="6.28542">
        <ele>1469</ele>
        <time>2017-05-09T11:00:05Z</time>
      </trkpt>
      <trkpt lat="44.83185" lon="6.28537">
        <ele>1469</ele>
        <time>2017-05-09T11:00:35Z</time>
      </trkpt>
      <trkpt lat="44.8321" lon="6.28518">
        <ele>1471</ele>
        <time>2017-05-09T11:00:50Z</time>
      </trkpt>
      <trkpt lat="44.83242" lon="6.28503">
        <ele>1472</ele>
        <time>2017-05-09T11:01:05Z</time>
      </trkpt>
      <trkpt lat="44.83233" lon="6.2851">
        <ele>1473</ele>
        <time>2017-05-09T11:01:10Z</time>
      </trkpt>
      <trkpt lat="44.83185" lon="6.28532">
        <ele>1468</ele>
        <time>2017-05-09T11:01:30Z</time>
      </trkpt>
      <trkpt lat="44.83187" lon="6.28533">
        <ele>1469</ele>
        <time>2017-05-09T11:02:00Z</time>
      </trkpt>
      <trkpt lat="44.83183" lon="6.28536">
        <ele>1468</ele>
        <time>2017-05-09T11:02:05Z</time>
      </trkpt>
      <trkpt lat="44.83197" lon="6.2853">
        <ele>1471</ele>
        <time>2017-05-09T11:02:40Z</time>
      </trkpt>
      <trkpt lat="44.83185" lon="6.28536">
        <ele>1469</ele>
        <time>2017-05-09T11:03:20Z</time>
      </trkpt>
      <trkpt lat="44.83171" lon="6.28546">
        <ele>1468</ele>
        <time>2017-05-09T11:03:25Z</time>
      </trkpt>
      <trkpt lat="44.8316" lon="6.2856">
        <ele>1469</ele>
        <time>2017-05-09T11:03:45Z</time>
      </trkpt>
      <trkpt lat="44.83148" lon="6.2857">
        <ele>1469</ele>
        <time>2017-05-09T11:04:05Z</time>
      </trkpt>
      <trkpt lat="44.83149" lon="6.28567">
        <ele>1469</ele>
        <time>2017-05-09T11:04:25Z</time>
      </trkpt>
      <trkpt lat="44.83177" lon="6.28549">
        <ele>1470</ele>
        <time>2017-05-09T11:04:45Z</time>
      </trkpt>
      <trkpt lat="44.83196" lon="6.2854">
        <ele>1474</ele>
        <time>2017-05-09T11:05:00Z</time>
      </trkpt>
      <trkpt lat="44.83209" lon="6.28532">
        <ele>1475</ele>
        <time>2017-05-09T11:05:15Z</time>
      </trkpt>
      <trkpt lat="44.83205" lon="6.28532">
        <ele>1474</ele>
        <time>2017-05-09T11:05:30Z</time>
      </trkpt>
      <trkpt lat="44.83175" lon="6.28548">
        <ele>1470</ele>
        <time>2017-05-09T11:06:05Z</time>
      </trkpt>
      <trkpt lat="44.83141" lon="6.2857">
        <ele>1467</ele>
        <time>2017-05-09T11:09:50Z</time>
      </trkpt>
      <trkpt lat="44.83157" lon="6.28564">
        <ele>1470</ele>
        <time>2017-05-09T11:10:05Z</time>
      </trkpt>
      <trkpt lat="44.83158" lon="6.28566">
        <ele>1471</ele>
        <time>2017-05-09T11:10:15Z</time>
      </trkpt>
      <trkpt lat="44.83174" lon="6.28554">
        <ele>1471</ele>
        <time>2017-05-09T11:10:35Z</time>
      </trkpt>
      <trkpt lat="44.83187" lon="6.28552">
        <ele>1475</ele>
        <time>2017-05-09T11:10:50Z</time>
      </trkpt>
      <trkpt lat="44.83175" lon="6.28554">
        <ele>1471</ele>
        <time>2017-05-09T11:11:15Z</time>
      </trkpt>
      <trkpt lat="44.8317" lon="6.28552">
        <ele>1470</ele>
        <time>2017-05-09T11:11:25Z</time>
      </trkpt>
      <trkpt lat="44.83162" lon="6.28557">
        <ele>1469</ele>
        <time>2017-05-09T11:11:35Z</time>
      </trkpt>
      <trkpt lat="44.8315" lon="6.28557">
        <ele>1466</ele>
        <time>2017-05-09T11:12:00Z</time>
      </trkpt>
      <trkpt lat="44.83164" lon="6.28556">
        <ele>1469</ele>
        <time>2017-05-09T11:12:15Z</time>
      </trkpt>
      <trkpt lat="44.83163" lon="6.28558">
        <ele>1470</ele>
        <time>2017-05-09T11:12:30Z</time>
      </trkpt>
      <trkpt lat="44.83171" lon="6.28557">
        <ele>1471</ele>
        <time>2017-05-09T11:12:40Z</time>
      </trkpt>
      <trkpt lat="44.83164" lon="6.28561">
        <ele>1471</ele>
        <time>2017-05-09T11:13:10Z</time>
      </trkpt>
      <trkpt lat="44.83084" lon="6.2882">
        <ele>1500</ele>
        <time>2017-05-09T11:26:40Z</time>
      </trkpt>
      <trkpt lat="44.83075" lon="6.28834">
        <ele>1501</ele>
        <time>2017-05-09T11:27:50Z</time>
      </trkpt>
      <trkpt lat="44.83077" lon="6.28843">
        <ele>1503</ele>
        <time>2017-05-09T11:28:05Z</time>
      </trkpt>
      <trkpt lat="44.83074" lon="6.28852">
        <ele>1504</ele>
        <time>2017-05-09T11:28:15Z</time>
      </trkpt>
      <trkpt lat="44.83056" lon="6.28877">
        <ele>1504</ele>
        <time>2017-05-09T11:28:40Z</time>
      </trkpt>
      <trkpt lat="44.83056" lon="6.28881">
        <ele>1505</ele>
        <time>2017-05-09T11:28:50Z</time>
      </trkpt>
      <trkpt lat="44.83056" lon="6.28892">
        <ele>1506</ele>
        <time>2017-05-09T11:29:00Z</time>
      </trkpt>
      <trkpt lat="44.83044" lon="6.28917">
        <ele>1508</ele>
        <time>2017-05-09T11:29:25Z</time>
      </trkpt>
      <trkpt lat="44.83041" lon="6.28949">
        <ele>1514</ele>
        <time>2017-05-09T11:30:15Z</time>
      </trkpt>
      <trkpt lat="44.83028" lon="6.28987">
        <ele>1523</ele>
        <time>2017-05-09T11:31:05Z</time>
      </trkpt>
      <trkpt lat="44.83027" lon="6.29002">
        <ele>1528</ele>
        <time>2017-05-09T11:31:25Z</time>
      </trkpt>
      <trkpt lat="44.8302" lon="6.29007">
        <ele>1528</ele>
        <time>2017-05-09T11:31:35Z</time>
      </trkpt>
      <trkpt lat="44.83016" lon="6.29021">
        <ele>1531</ele>
        <time>2017-05-09T11:32:00Z</time>
      </trkpt>
      <trkpt lat="44.82998" lon="6.2905">
        <ele>1534</ele>
        <time>2017-05-09T11:32:45Z</time>
      </trkpt>
      <trkpt lat="44.82993" lon="6.2905">
        <ele>1532</ele>
        <time>2017-05-09T11:32:50Z</time>
      </trkpt>
      <trkpt lat="44.82994" lon="6.29056">
        <ele>1535</ele>
        <time>2017-05-09T11:33:00Z</time>
      </trkpt>
      <trkpt lat="44.82987" lon="6.29056">
        <ele>1532</ele>
        <time>2017-05-09T11:33:25Z</time>
      </trkpt>
      <trkpt lat="44.82986" lon="6.29066">
        <ele>1535</ele>
        <time>2017-05-09T11:33:45Z</time>
      </trkpt>
      <trkpt lat="44.82982" lon="6.29066">
        <ele>1533</ele>
        <time>2017-05-09T11:33:55Z</time>
      </trkpt>
      <trkpt lat="44.82986" lon="6.29065">
        <ele>1534</ele>
        <time>2017-05-09T11:34:45Z</time>
      </trkpt>
      <trkpt lat="44.82986" lon="6.29066">
        <ele>1535</ele>
        <time>2017-05-09T11:34:55Z</time>
      </trkpt>
      <trkpt lat="44.82981" lon="6.29063">
        <ele>1531</ele>
        <time>2017-05-09T11:35:10Z</time>
      </trkpt>
      <trkpt lat="44.82968" lon="6.29073">
        <ele>1530</ele>
        <time>2017-05-09T11:35:35Z</time>
      </trkpt>
      <trkpt lat="44.82954" lon="6.2907">
        <ele>1527</ele>
        <time>2017-05-09T11:36:00Z</time>
      </trkpt>
      <trkpt lat="44.82941" lon="6.29084">
        <ele>1528</ele>
        <time>2017-05-09T11:36:15Z</time>
      </trkpt>
      <trkpt lat="44.82925" lon="6.29085">
        <ele>1525</ele>
        <time>2017-05-09T11:36:30Z</time>
      </trkpt>
      <trkpt lat="44.8289" lon="6.29112">
        <ele>1525</ele>
        <time>2017-05-09T11:37:20Z</time>
      </trkpt>
      <trkpt lat="44.82884" lon="6.29123">
        <ele>1529</ele>
        <time>2017-05-09T11:37:40Z</time>
      </trkpt>
      <trkpt lat="44.82879" lon="6.29121">
        <ele>1528</ele>
        <time>2017-05-09T11:37:50Z</time>
      </trkpt>
      <trkpt lat="44.82874" lon="6.29121">
        <ele>1528</ele>
        <time>2017-05-09T11:38:00Z</time>
      </trkpt>
      <trkpt lat="44.82863" lon="6.29142">
        <ele>1533</ele>
        <time>2017-05-09T11:38:30Z</time>
      </trkpt>
      <trkpt lat="44.82854" lon="6.29151">
        <ele>1534</ele>
        <time>2017-05-09T11:38:45Z</time>
      </trkpt>
      <trkpt lat="44.82847" lon="6.29166">
        <ele>1536</ele>
        <time>2017-05-09T11:39:05Z</time>
      </trkpt>
      <trkpt lat="44.82836" lon="6.29171">
        <ele>1535</ele>
        <time>2017-05-09T11:39:20Z</time>
      </trkpt>
      <trkpt lat="44.82821" lon="6.29184">
        <ele>1539</ele>
        <time>2017-05-09T11:39:55Z</time>
      </trkpt>
      <trkpt lat="44.82816" lon="6.29183">
        <ele>1539</ele>
        <time>2017-05-09T11:40:10Z</time>
      </trkpt>
      <trkpt lat="44.82816" lon="6.29204">
        <ele>1545</ele>
        <time>2017-05-09T11:40:30Z</time>
      </trkpt>
      <trkpt lat="44.82811" lon="6.29209">
        <ele>1546</ele>
        <time>2017-05-09T11:40:40Z</time>
      </trkpt>
      <trkpt lat="44.82802" lon="6.29206">
        <ele>1545</ele>
        <time>2017-05-09T11:40:55Z</time>
      </trkpt>
      <trkpt lat="44.82798" lon="6.2921">
        <ele>1546</ele>
        <time>2017-05-09T11:41:25Z</time>
      </trkpt>
      <trkpt lat="44.82799" lon="6.29208">
        <ele>1546</ele>
        <time>2017-05-09T11:41:45Z</time>
      </trkpt>
      <trkpt lat="44.82796" lon="6.29201">
        <ele>1544</ele>
        <time>2017-05-09T11:42:15Z</time>
      </trkpt>
      <trkpt lat="44.82796" lon="6.29196">
        <ele>1542</ele>
        <time>2017-05-09T11:42:40Z</time>
      </trkpt>
      <trkpt lat="44.82795" lon="6.29195">
        <ele>1542</ele>
        <time>2017-05-09T11:42:55Z</time>
      </trkpt>
      <trkpt lat="44.82794" lon="6.29195">
        <ele>1542</ele>
        <time>2017-05-09T11:43:05Z</time>
      </trkpt>
      <trkpt lat="44.82802" lon="6.29202">
        <ele>1544</ele>
        <time>2017-05-09T11:43:35Z</time>
      </trkpt>
      <trkpt lat="44.82809" lon="6.29205">
        <ele>1545</ele>
        <time>2017-05-09T11:43:40Z</time>
      </trkpt>
      <trkpt lat="44.82808" lon="6.29204">
        <ele>1545</ele>
        <time>2017-05-09T11:43:50Z</time>
      </trkpt>
      <trkpt lat="44.82807" lon="6.29205">
        <ele>1545</ele>
        <time>2017-05-09T11:44:20Z</time>
      </trkpt>
      <trkpt lat="44.82802" lon="6.29206">
        <ele>1545</ele>
        <time>2017-05-09T11:44:35Z</time>
      </trkpt>
      <trkpt lat="44.82805" lon="6.29212">
        <ele>1547</ele>
        <time>2017-05-09T11:44:55Z</time>
      </trkpt>
      <trkpt lat="44.82802" lon="6.29211">
        <ele>1546</ele>
        <time>2017-05-09T11:45:45Z</time>
      </trkpt>
      <trkpt lat="44.82802" lon="6.29211">
        <ele>1546</ele>
        <time>2017-05-09T11:45:50Z</time>
      </trkpt>
      <trkpt lat="44.82804" lon="6.29213">
        <ele>1547</ele>
        <time>2017-05-09T11:46:00Z</time>
      </trkpt>
      <trkpt lat="44.82812" lon="6.2924">
        <ele>1555</ele>
        <time>2017-05-09T11:46:35Z</time>
      </trkpt>
      <trkpt lat="44.82801" lon="6.29257">
        <ele>1559</ele>
        <time>2017-05-09T11:47:05Z</time>
      </trkpt>
      <trkpt lat="44.82793" lon="6.29259">
        <ele>1558</ele>
        <time>2017-05-09T11:47:20Z</time>
      </trkpt>
      <trkpt lat="44.82795" lon="6.29265">
        <ele>1560</ele>
        <time>2017-05-09T11:47:35Z</time>
      </trkpt>
      <trkpt lat="44.82792" lon="6.29266">
        <ele>1560</ele>
        <time>2017-05-09T11:47:45Z</time>
      </trkpt>
      <trkpt lat="44.82789" lon="6.2928">
        <ele>1563</ele>
        <time>2017-05-09T11:48:20Z</time>
      </trkpt>
      <trkpt lat="44.82794" lon="6.29283">
        <ele>1565</ele>
        <time>2017-05-09T11:48:35Z</time>
      </trkpt>
      <trkpt lat="44.828" lon="6.29286">
        <ele>1567</ele>
        <time>2017-05-09T11:48:50Z</time>
      </trkpt>
      <trkpt lat="44.82806" lon="6.29293">
        <ele>1570</ele>
        <time>2017-05-09T11:49:00Z</time>
      </trkpt>
      <trkpt lat="44.82799" lon="6.29282">
        <ele>1566</ele>
        <time>2017-05-09T11:49:25Z</time>
      </trkpt>
      <trkpt lat="44.82799" lon="6.29279">
        <ele>1565</ele>
        <time>2017-05-09T11:49:30Z</time>
      </trkpt>
      <trkpt lat="44.82807" lon="6.29251">
        <ele>1558</ele>
        <time>2017-05-09T11:50:00Z</time>
      </trkpt>
      <trkpt lat="44.82815" lon="6.29247">
        <ele>1558</ele>
        <time>2017-05-09T11:50:15Z</time>
      </trkpt>
      <trkpt lat="44.82812" lon="6.29214">
        <ele>1548</ele>
        <time>2017-05-09T11:51:00Z</time>
      </trkpt>
      <trkpt lat="44.82814" lon="6.29209">
        <ele>1546</ele>
        <time>2017-05-09T11:51:10Z</time>
      </trkpt>
      <trkpt lat="44.8282" lon="6.29198">
        <ele>1543</ele>
        <time>2017-05-09T11:51:25Z</time>
      </trkpt>
      <trkpt lat="44.82829" lon="6.29172">
        <ele>1535</ele>
        <time>2017-05-09T11:51:50Z</time>
      </trkpt>
      <trkpt lat="44.82858" lon="6.29141">
        <ele>1532</ele>
        <time>2017-05-09T11:52:55Z</time>
      </trkpt>
      <trkpt lat="44.82861" lon="6.29143">
        <ele>1533</ele>
        <time>2017-05-09T11:53:05Z</time>
      </trkpt>
      <trkpt lat="44.82862" lon="6.29138">
        <ele>1532</ele>
        <time>2017-05-09T11:53:15Z</time>
      </trkpt>
      <trkpt lat="44.82878" lon="6.29117">
        <ele>1527</ele>
        <time>2017-05-09T11:53:45Z</time>
      </trkpt>
      <trkpt lat="44.82881" lon="6.29113">
        <ele>1526</ele>
        <time>2017-05-09T11:54:10Z</time>
      </trkpt>
      <trkpt lat="44.82897" lon="6.29113">
        <ele>1525</ele>
        <time>2017-05-09T11:54:45Z</time>
      </trkpt>
      <trkpt lat="44.82905" lon="6.29106">
        <ele>1523</ele>
        <time>2017-05-09T11:55:00Z</time>
      </trkpt>
      <trkpt lat="44.82913" lon="6.29106">
        <ele>1525</ele>
        <time>2017-05-09T11:55:10Z</time>
      </trkpt>
      <trkpt lat="44.82916" lon="6.29107">
        <ele>1526</ele>
        <time>2017-05-09T11:55:20Z</time>
      </trkpt>
      <trkpt lat="44.82916" lon="6.29107">
        <ele>1526</ele>
        <time>2017-05-09T11:56:05Z</time>
      </trkpt>
      <trkpt lat="44.82917" lon="6.29106">
        <ele>1527</ele>
        <time>2017-05-09T11:56:20Z</time>
      </trkpt>
      <trkpt lat="44.82915" lon="6.29105">
        <ele>1525</ele>
        <time>2017-05-09T11:56:45Z</time>
      </trkpt>
      <trkpt lat="44.82913" lon="6.29103">
        <ele>1525</ele>
        <time>2017-05-09T11:57:00Z</time>
      </trkpt>
      <trkpt lat="44.82924" lon="6.29094">
        <ele>1526</ele>
        <time>2017-05-09T11:57:20Z</time>
      </trkpt>
      <trkpt lat="44.82928" lon="6.29089">
        <ele>1526</ele>
        <time>2017-05-09T11:57:30Z</time>
      </trkpt>
      <trkpt lat="44.82929" lon="6.2909">
        <ele>1527</ele>
        <time>2017-05-09T11:57:40Z</time>
      </trkpt>
      <trkpt lat="44.82934" lon="6.29087">
        <ele>1527</ele>
        <time>2017-05-09T11:58:00Z</time>
      </trkpt>
      <trkpt lat="44.82945" lon="6.29087">
        <ele>1529</ele>
        <time>2017-05-09T11:58:15Z</time>
      </trkpt>
      <trkpt lat="44.82969" lon="6.29068">
        <ele>1529</ele>
        <time>2017-05-09T11:58:40Z</time>
      </trkpt>
      <trkpt lat="44.8299" lon="6.29059">
        <ele>1534</ele>
        <time>2017-05-09T11:59:05Z</time>
      </trkpt>
      <trkpt lat="44.82992" lon="6.29057">
        <ele>1534</ele>
        <time>2017-05-09T11:59:35Z</time>
      </trkpt>
      <trkpt lat="44.82995" lon="6.29049">
        <ele>1532</ele>
        <time>2017-05-09T11:59:55Z</time>
      </trkpt>
      <trkpt lat="44.82998" lon="6.29049">
        <ele>1533</ele>
        <time>2017-05-09T12:00:05Z</time>
      </trkpt>
      <trkpt lat="44.82996" lon="6.29052">
        <ele>1534</ele>
        <time>2017-05-09T12:00:50Z</time>
      </trkpt>
      <trkpt lat="44.83" lon="6.29051">
        <ele>1535</ele>
        <time>2017-05-09T12:01:20Z</time>
      </trkpt>
      <trkpt lat="44.83" lon="6.29055">
        <ele>1537</ele>
        <time>2017-05-09T12:01:45Z</time>
      </trkpt>
      <trkpt lat="44.83007" lon="6.29047">
        <ele>1536</ele>
        <time>2017-05-09T12:01:50Z</time>
      </trkpt>
      <trkpt lat="44.83011" lon="6.29029">
        <ele>1532</ele>
        <time>2017-05-09T12:02:05Z</time>
      </trkpt>
      <trkpt lat="44.83031" lon="6.28991">
        <ele>1525</ele>
        <time>2017-05-09T12:02:40Z</time>
      </trkpt>
      <trkpt lat="44.83038" lon="6.2895">
        <ele>1514</ele>
        <time>2017-05-09T12:03:20Z</time>
      </trkpt>
      <trkpt lat="44.8304" lon="6.28944">
        <ele>1513</ele>
        <time>2017-05-09T12:03:25Z</time>
      </trkpt>
      <trkpt lat="44.83052" lon="6.28922">
        <ele>1512</ele>
        <time>2017-05-09T12:03:45Z</time>
      </trkpt>
      <trkpt lat="44.83049" lon="6.28921">
        <ele>1511</ele>
        <time>2017-05-09T12:03:55Z</time>
      </trkpt>
      <trkpt lat="44.8305" lon="6.28922">
        <ele>1511</ele>
        <time>2017-05-09T12:04:15Z</time>
      </trkpt>
      <trkpt lat="44.83049" lon="6.28925">
        <ele>1511</ele>
        <time>2017-05-09T12:04:50Z</time>
      </trkpt>
      <trkpt lat="44.83052" lon="6.28927">
        <ele>1513</ele>
        <time>2017-05-09T12:05:10Z</time>
      </trkpt>
      <trkpt lat="44.83051" lon="6.28912">
        <ele>1509</ele>
        <time>2017-05-09T12:05:35Z</time>
      </trkpt>
      <trkpt lat="44.83049" lon="6.28907">
        <ele>1507</ele>
        <time>2017-05-09T12:05:40Z</time>
      </trkpt>
      <trkpt lat="44.83054" lon="6.28894">
        <ele>1506</ele>
        <time>2017-05-09T12:06:00Z</time>
      </trkpt>
      <trkpt lat="44.83051" lon="6.28894">
        <ele>1505</ele>
        <time>2017-05-09T12:06:20Z</time>
      </trkpt>
      <trkpt lat="44.83049" lon="6.28901">
        <ele>1506</ele>
        <time>2017-05-09T12:06:35Z</time>
      </trkpt>
      <trkpt lat="44.8305" lon="6.28902">
        <ele>1506</ele>
        <time>2017-05-09T12:06:50Z</time>
      </trkpt>
      <trkpt lat="44.83058" lon="6.28917">
        <ele>1513</ele>
        <time>2017-05-09T12:07:25Z</time>
      </trkpt>
      <trkpt lat="44.83064" lon="6.28919">
        <ele>1516</ele>
        <time>2017-05-09T12:07:35Z</time>
      </trkpt>
      <trkpt lat="44.83063" lon="6.28927">
        <ele>1518</ele>
        <time>2017-05-09T12:08:05Z</time>
      </trkpt>
      <trkpt lat="44.83065" lon="6.28924">
        <ele>1518</ele>
        <time>2017-05-09T12:08:20Z</time>
      </trkpt>
      <trkpt lat="44.83066" lon="6.2893">
        <ele>1520</ele>
        <time>2017-05-09T12:08:45Z</time>
      </trkpt>
      <trkpt lat="44.83066" lon="6.28929">
        <ele>1520</ele>
        <time>2017-05-09T12:09:10Z</time>
      </trkpt>
      <trkpt lat="44.83071" lon="6.28932">
        <ele>1522</ele>
        <time>2017-05-09T12:09:15Z</time>
      </trkpt>
      <trkpt lat="44.83073" lon="6.28923">
        <ele>1520</ele>
        <time>2017-05-09T12:09:30Z</time>
      </trkpt>
      <trkpt lat="44.8308" lon="6.28916">
        <ele>1521</ele>
        <time>2017-05-09T12:10:00Z</time>
      </trkpt>
      <trkpt lat="44.83082" lon="6.28912">
        <ele>1520</ele>
        <time>2017-05-09T12:10:10Z</time>
      </trkpt>
      <trkpt lat="44.83079" lon="6.28912">
        <ele>1519</ele>
        <time>2017-05-09T12:10:20Z</time>
      </trkpt>
      <trkpt lat="44.8307" lon="6.28894">
        <ele>1511</ele>
        <time>2017-05-09T12:10:50Z</time>
      </trkpt>
      <trkpt lat="44.83065" lon="6.289">
        <ele>1511</ele>
        <time>2017-05-09T12:11:10Z</time>
      </trkpt>
      <trkpt lat="44.83056" lon="6.28898">
        <ele>1507</ele>
        <time>2017-05-09T12:11:25Z</time>
      </trkpt>
      <trkpt lat="44.83063" lon="6.28871">
        <ele>1505</ele>
        <time>2017-05-09T12:11:50Z</time>
      </trkpt>
      <trkpt lat="44.83066" lon="6.28867">
        <ele>1505</ele>
        <time>2017-05-09T12:12:00Z</time>
      </trkpt>
      <trkpt lat="44.83067" lon="6.28858">
        <ele>1504</ele>
        <time>2017-05-09T12:12:10Z</time>
      </trkpt>
      <trkpt lat="44.83074" lon="6.28849">
        <ele>1504</ele>
        <time>2017-05-09T12:12:20Z</time>
      </trkpt>
      <trkpt lat="44.83077" lon="6.28833">
        <ele>1501</ele>
        <time>2017-05-09T12:12:30Z</time>
      </trkpt>
      <trkpt lat="44.83091" lon="6.28804">
        <ele>1498</ele>
        <time>2017-05-09T12:13:05Z</time>
      </trkpt>
      <trkpt lat="44.8309" lon="6.28756">
        <ele>1490</ele>
        <time>2017-05-09T12:13:35Z</time>
      </trkpt>
      <trkpt lat="44.83091" lon="6.2874">
        <ele>1487</ele>
        <time>2017-05-09T12:13:45Z</time>
      </trkpt>
      <trkpt lat="44.83102" lon="6.28704">
        <ele>1481</ele>
        <time>2017-05-09T12:14:15Z</time>
      </trkpt>
      <trkpt lat="44.83105" lon="6.28699">
        <ele>1480</ele>
        <time>2017-05-09T12:14:20Z</time>
      </trkpt>
      <trkpt lat="44.83107" lon="6.28684">
        <ele>1478</ele>
        <time>2017-05-09T12:14:35Z</time>
      </trkpt>
      <trkpt lat="44.83107" lon="6.28673">
        <ele>1476</ele>
        <time>2017-05-09T12:14:45Z</time>
      </trkpt>
      <trkpt lat="44.83102" lon="6.28643">
        <ele>1471</ele>
        <time>2017-05-09T12:15:10Z</time>
      </trkpt>
      <trkpt lat="44.83106" lon="6.28627">
        <ele>1468</ele>
        <time>2017-05-09T12:15:45Z</time>
      </trkpt>
      <trkpt lat="44.83104" lon="6.28613">
        <ele>1466</ele>
        <time>2017-05-09T12:16:10Z</time>
      </trkpt>
      <trkpt lat="44.83102" lon="6.28582">
        <ele>1462</ele>
        <time>2017-05-09T12:16:30Z</time>
      </trkpt>
      <trkpt lat="44.83105" lon="6.28576">
        <ele>1461</ele>
        <time>2017-05-09T12:16:45Z</time>
      </trkpt>
      <trkpt lat="44.83115" lon="6.28573">
        <ele>1461</ele>
        <time>2017-05-09T12:16:55Z</time>
      </trkpt>
      <trkpt lat="44.83123" lon="6.28571">
        <ele>1463</ele>
        <time>2017-05-09T12:17:05Z</time>
      </trkpt>
      <trkpt lat="44.83139" lon="6.28576">
        <ele>1468</ele>
        <time>2017-05-09T12:17:45Z</time>
      </trkpt>
      <trkpt lat="44.83135" lon="6.28574">
        <ele>1467</ele>
        <time>2017-05-09T12:18:00Z</time>
      </trkpt>
      <trkpt lat="44.83135" lon="6.28571">
        <ele>1466</ele>
        <time>2017-05-09T12:18:05Z</time>
      </trkpt>
      <trkpt lat="44.8313" lon="6.2857">
        <ele>1465</ele>
        <time>2017-05-09T12:18:35Z</time>
      </trkpt>
      <trkpt lat="44.83128" lon="6.28571">
        <ele>1464</ele>
        <time>2017-05-09T12:18:45Z</time>
      </trkpt>
      <trkpt lat="44.83129" lon="6.2857">
        <ele>1464</ele>
        <time>2017-05-09T12:19:05Z</time>
      </trkpt>
      <trkpt lat="44.83127" lon="6.28572">
        <ele>1464</ele>
        <time>2017-05-09T12:19:15Z</time>
      </trkpt>
      <trkpt lat="44.83132" lon="6.28573">
        <ele>1466</ele>
        <time>2017-05-09T12:19:30Z</time>
      </trkpt>
      <trkpt lat="44.83132" lon="6.28572">
        <ele>1465</ele>
        <time>2017-05-09T12:19:40Z</time>
      </trkpt>
      <trkpt lat="44.83131" lon="6.28572">
        <ele>1465</ele>
        <time>2017-05-09T12:19:55Z</time>
      </trkpt>
      <trkpt lat="44.83132" lon="6.28572">
        <ele>1465</ele>
        <time>2017-05-09T12:20:20Z</time>
      </trkpt>
      <trkpt lat="44.83132" lon="6.28572">
        <ele>1465</ele>
        <time>2017-05-09T12:21:00Z</time>
      </trkpt>
      <trkpt lat="44.83132" lon="6.28571">
        <ele>1465</ele>
        <time>2017-05-09T12:21:25Z</time>
      </trkpt>
      <trkpt lat="44.83132" lon="6.2857">
        <ele>1465</ele>
        <time>2017-05-09T12:21:40Z</time>
      </trkpt>
      <trkpt lat="44.83132" lon="6.28571">
        <ele>1465</ele>
        <time>2017-05-09T12:22:00Z</time>
      </trkpt>
      <trkpt lat="44.83132" lon="6.2857">
        <ele>1465</ele>
        <time>2017-05-09T12:22:25Z</time>
      </trkpt>
      <trkpt lat="44.83132" lon="6.28571">
        <ele>1465</ele>
        <time>2017-05-09T12:23:15Z</time>
      </trkpt>
      <trkpt lat="44.83131" lon="6.2857">
        <ele>1465</ele>
        <time>2017-05-09T12:23:50Z</time>
      </trkpt>
      <trkpt lat="44.8313" lon="6.28571">
        <ele>1465</ele>
        <time>2017-05-09T12:24:00Z</time>
      </trkpt>
      <trkpt lat="44.83131" lon="6.28572">
        <ele>1465</ele>
        <time>2017-05-09T12:24:15Z</time>
      </trkpt>
      <trkpt lat="44.8313" lon="6.28571">
        <ele>1465</ele>
        <time>2017-05-09T12:24:35Z</time>
      </trkpt>
      <trkpt lat="44.83129" lon="6.28573">
        <ele>1465</ele>
        <time>2017-05-09T12:24:45Z</time>
      </trkpt>
      <trkpt lat="44.83132" lon="6.28572">
        <ele>1465</ele>
        <time>2017-05-09T12:25:05Z</time>
      </trkpt>
      <trkpt lat="44.83131" lon="6.28571">
        <ele>1465</ele>
        <time>2017-05-09T12:25:30Z</time>
      </trkpt>
      <trkpt lat="44.83131" lon="6.28571">
        <ele>1465</ele>
        <time>2017-05-09T12:25:50Z</time>
      </trkpt>
      <trkpt lat="44.8313" lon="6.28576">
        <ele>1466</ele>
        <time>2017-05-09T12:26:15Z</time>
      </trkpt>
      <trkpt lat="44.83129" lon="6.28575">
        <ele>1465</ele>
        <time>2017-05-09T12:26:20Z</time>
      </trkpt>
      <trkpt lat="44.8313" lon="6.28575">
        <ele>1466</ele>
        <time>2017-05-09T12:26:35Z</time>
      </trkpt>
      <trkpt lat="44.83129" lon="6.28574">
        <ele>1465</ele>
        <time>2017-05-09T12:28:05Z</time>
      </trkpt>
      <trkpt lat="44.83129" lon="6.28579">
        <ele>1466</ele>
        <time>2017-05-09T12:28:25Z</time>
      </trkpt>
      <trkpt lat="44.83129" lon="6.28579">
        <ele>1466</ele>
        <time>2017-05-09T12:28:30Z</time>
      </trkpt>
      <trkpt lat="44.83129" lon="6.28579">
        <ele>1466</ele>
        <time>2017-05-09T12:28:45Z</time>
      </trkpt>
      <trkpt lat="44.83128" lon="6.28578">
        <ele>1466</ele>
        <time>2017-05-09T12:28:55Z</time>
      </trkpt>
      <trkpt lat="44.83128" lon="6.28578">
        <ele>1466</ele>
        <time>2017-05-09T12:29:50Z</time>
      </trkpt>
      <trkpt lat="44.83127" lon="6.28577">
        <ele>1465</ele>
        <time>2017-05-09T12:29:55Z</time>
      </trkpt>
      <trkpt lat="44.83129" lon="6.28575">
        <ele>1465</ele>
        <time>2017-05-09T12:30:10Z</time>
      </trkpt>
      <trkpt lat="44.8313" lon="6.28574">
        <ele>1465</ele>
        <time>2017-05-09T12:30:15Z</time>
      </trkpt>
      <trkpt lat="44.8313" lon="6.28574">
        <ele>1465</ele>
        <time>2017-05-09T12:30:20Z</time>
      </trkpt>
      <trkpt lat="44.8313" lon="6.28571">
        <ele>1465</ele>
        <time>2017-05-09T12:30:45Z</time>
      </trkpt>
      <trkpt lat="44.83126" lon="6.28568">
        <ele>1463</ele>
        <time>2017-05-09T12:31:05Z</time>
      </trkpt>
      <trkpt lat="44.83127" lon="6.28567">
        <ele>1463</ele>
        <time>2017-05-09T12:31:15Z</time>
      </trkpt>
      <trkpt lat="44.83127" lon="6.28568">
        <ele>1463</ele>
        <time>2017-05-09T12:31:25Z</time>
      </trkpt>
      <trkpt lat="44.83127" lon="6.28569">
        <ele>1464</ele>
        <time>2017-05-09T12:31:40Z</time>
      </trkpt>
      <trkpt lat="44.83129" lon="6.28568">
        <ele>1464</ele>
        <time>2017-05-09T12:32:00Z</time>
      </trkpt>
      <trkpt lat="44.83129" lon="6.28569">
        <ele>1464</ele>
        <time>2017-05-09T12:32:30Z</time>
      </trkpt>
      <trkpt lat="44.83127" lon="6.28568">
        <ele>1463</ele>
        <time>2017-05-09T12:32:35Z</time>
      </trkpt>
      <trkpt lat="44.83127" lon="6.28568">
        <ele>1463</ele>
        <time>2017-05-09T12:32:50Z</time>
      </trkpt>
      <trkpt lat="44.83127" lon="6.28568">
        <ele>1464</ele>
        <time>2017-05-09T12:33:05Z</time>
      </trkpt>
      <trkpt lat="44.83127" lon="6.28568">
        <ele>1464</ele>
        <time>2017-05-09T12:33:10Z</time>
      </trkpt>
      <trkpt lat="44.83127" lon="6.28568">
        <ele>1464</ele>
        <time>2017-05-09T12:34:30Z</time>
      </trkpt>
      <trkpt lat="44.83128" lon="6.28567">
        <ele>1463</ele>
        <time>2017-05-09T12:34:40Z</time>
      </trkpt>
      <trkpt lat="44.83127" lon="6.28564">
        <ele>1463</ele>
        <time>2017-05-09T12:34:55Z</time>
      </trkpt>
      <trkpt lat="44.83127" lon="6.28565">
        <ele>1463</ele>
        <time>2017-05-09T12:35:05Z</time>
      </trkpt>
      <trkpt lat="44.83127" lon="6.28565">
        <ele>1463</ele>
        <time>2017-05-09T12:35:50Z</time>
      </trkpt>
      <trkpt lat="44.83127" lon="6.28565">
        <ele>1463</ele>
        <time>2017-05-09T12:36:25Z</time>
      </trkpt>
      <trkpt lat="44.83128" lon="6.28565">
        <ele>1463</ele>
        <time>2017-05-09T12:37:10Z</time>
      </trkpt>
      <trkpt lat="44.83127" lon="6.28565">
        <ele>1463</ele>
        <time>2017-05-09T12:37:30Z</time>
      </trkpt>
      <trkpt lat="44.83127" lon="6.28565">
        <ele>1463</ele>
        <time>2017-05-09T12:38:05Z</time>
      </trkpt>
      <trkpt lat="44.83127" lon="6.28565">
        <ele>1463</ele>
        <time>2017-05-09T12:38:15Z</time>
      </trkpt>
      <trkpt lat="44.83127" lon="6.28566">
        <ele>1463</ele>
        <time>2017-05-09T12:39:35Z</time>
      </trkpt>
      <trkpt lat="44.83128" lon="6.28566">
        <ele>1463</ele>
        <time>2017-05-09T12:39:40Z</time>
      </trkpt>
      <trkpt lat="44.83128" lon="6.28566">
        <ele>1463</ele>
        <time>2017-05-09T12:40:00Z</time>
      </trkpt>
      <trkpt lat="44.83127" lon="6.28566">
        <ele>1463</ele>
        <time>2017-05-09T12:40:10Z</time>
      </trkpt>
      <trkpt lat="44.83128" lon="6.28564">
        <ele>1463</ele>
        <time>2017-05-09T12:40:25Z</time>
      </trkpt>
      <trkpt lat="44.83127" lon="6.28564">
        <ele>1462</ele>
        <time>2017-05-09T12:40:35Z</time>
      </trkpt>
      <trkpt lat="44.83127" lon="6.28564">
        <ele>1463</ele>
        <time>2017-05-09T12:41:10Z</time>
      </trkpt>
      <trkpt lat="44.83127" lon="6.28564">
        <ele>1463</ele>
        <time>2017-05-09T12:41:20Z</time>
      </trkpt>
      <trkpt lat="44.83127" lon="6.28564">
        <ele>1463</ele>
        <time>2017-05-09T12:42:00Z</time>
      </trkpt>
      <trkpt lat="44.83127" lon="6.28564">
        <ele>1463</ele>
        <time>2017-05-09T12:42:05Z</time>
      </trkpt>
      <trkpt lat="44.83126" lon="6.28563">
        <ele>1462</ele>
        <time>2017-05-09T12:42:40Z</time>
      </trkpt>
      <trkpt lat="44.83127" lon="6.28556">
        <ele>1461</ele>
        <time>2017-05-09T12:42:50Z</time>
      </trkpt>
      <trkpt lat="44.83125" lon="6.28546">
        <ele>1459</ele>
        <time>2017-05-09T12:43:00Z</time>
      </trkpt>
      <trkpt lat="44.83129" lon="6.28534">
        <ele>1458</ele>
        <time>2017-05-09T12:43:15Z</time>
      </trkpt>
      <trkpt lat="44.83134" lon="6.28527">
        <ele>1457</ele>
        <time>2017-05-09T12:43:25Z</time>
      </trkpt>
      <trkpt lat="44.83134" lon="6.28521">
        <ele>1456</ele>
        <time>2017-05-09T12:43:35Z</time>
      </trkpt>
      <trkpt lat="44.83137" lon="6.28506">
        <ele>1453</ele>
        <time>2017-05-09T12:43:50Z</time>
      </trkpt>
      <trkpt lat="44.83144" lon="6.28492">
        <ele>1451</ele>
        <time>2017-05-09T12:44:05Z</time>
      </trkpt>
      <trkpt lat="44.83161" lon="6.28466">
        <ele>1448</ele>
        <time>2017-05-09T12:44:30Z</time>
      </trkpt>
      <trkpt lat="44.83163" lon="6.28432">
        <ele>1442</ele>
        <time>2017-05-09T12:44:50Z</time>
      </trkpt>
      <trkpt lat="44.83172" lon="6.28413">
        <ele>1440</ele>
        <time>2017-05-09T12:45:10Z</time>
      </trkpt>
      <trkpt lat="44.83165" lon="6.28376">
        <ele>1437</ele>
        <time>2017-05-09T12:45:35Z</time>
      </trkpt>
      <trkpt lat="44.83179" lon="6.28376">
        <ele>1439</ele>
        <time>2017-05-09T12:45:50Z</time>
      </trkpt>
      <trkpt lat="44.8321" lon="6.28371">
        <ele>1452</ele>
        <time>2017-05-09T12:46:15Z</time>
      </trkpt>
      <trkpt lat="44.83216" lon="6.28358">
        <ele>1456</ele>
        <time>2017-05-09T12:46:30Z</time>
      </trkpt>
      <trkpt lat="44.83216" lon="6.28358">
        <ele>1456</ele>
        <time>2017-05-09T12:46:50Z</time>
      </trkpt>
      <trkpt lat="44.83215" lon="6.28362">
        <ele>1455</ele>
        <time>2017-05-09T12:47:20Z</time>
      </trkpt>
      <trkpt lat="44.83214" lon="6.28362">
        <ele>1454</ele>
        <time>2017-05-09T12:47:25Z</time>
      </trkpt>
      <trkpt lat="44.83212" lon="6.28356">
        <ele>1454</ele>
        <time>2017-05-09T12:47:35Z</time>
      </trkpt>
      <trkpt lat="44.83212" lon="6.28354">
        <ele>1454</ele>
        <time>2017-05-09T12:48:15Z</time>
      </trkpt>
      <trkpt lat="44.83211" lon="6.28353">
        <ele>1454</ele>
        <time>2017-05-09T12:48:40Z</time>
      </trkpt>
      <trkpt lat="44.83212" lon="6.28342">
        <ele>1455</ele>
        <time>2017-05-09T12:48:50Z</time>
      </trkpt>
      <trkpt lat="44.83213" lon="6.28327">
        <ele>1455</ele>
        <time>2017-05-09T12:49:00Z</time>
      </trkpt>
      <trkpt lat="44.83208" lon="6.28298">
        <ele>1453</ele>
        <time>2017-05-09T12:49:20Z</time>
      </trkpt>
      <trkpt lat="44.83209" lon="6.28276">
        <ele>1453</ele>
        <time>2017-05-09T12:49:35Z</time>
      </trkpt>
      <trkpt lat="44.83207" lon="6.28239">
        <ele>1452</ele>
        <time>2017-05-09T12:50:05Z</time>
      </trkpt>
      <trkpt lat="44.83194" lon="6.28194">
        <ele>1447</ele>
        <time>2017-05-09T12:50:40Z</time>
      </trkpt>
      <trkpt lat="44.83193" lon="6.28181">
        <ele>1447</ele>
        <time>2017-05-09T12:50:50Z</time>
      </trkpt>
      <trkpt lat="44.8319" lon="6.28173">
        <ele>1445</ele>
        <time>2017-05-09T12:50:55Z</time>
      </trkpt>
      <trkpt lat="44.83177" lon="6.28133">
        <ele>1441</ele>
        <time>2017-05-09T12:51:25Z</time>
      </trkpt>
      <trkpt lat="44.83169" lon="6.28123">
        <ele>1441</ele>
        <time>2017-05-09T12:51:35Z</time>
      </trkpt>
      <trkpt lat="44.83167" lon="6.28111">
        <ele>1442</ele>
        <time>2017-05-09T12:51:55Z</time>
      </trkpt>
      <trkpt lat="44.83166" lon="6.28111">
        <ele>1442</ele>
        <time>2017-05-09T12:52:15Z</time>
      </trkpt>
      <trkpt lat="44.83158" lon="6.28103">
        <ele>1441</ele>
        <time>2017-05-09T12:52:25Z</time>
      </trkpt>
      <trkpt lat="44.83141" lon="6.28074">
        <ele>1438</ele>
        <time>2017-05-09T12:52:50Z</time>
      </trkpt>
      <trkpt lat="44.83125" lon="6.28051">
        <ele>1438</ele>
        <time>2017-05-09T12:53:10Z</time>
      </trkpt>
      <trkpt lat="44.83116" lon="6.28043">
        <ele>1436</ele>
        <time>2017-05-09T12:53:20Z</time>
      </trkpt>
      <trkpt lat="44.83101" lon="6.28035">
        <ele>1432</ele>
        <time>2017-05-09T12:53:35Z</time>
      </trkpt>
      <trkpt lat="44.83091" lon="6.28019">
        <ele>1433</ele>
        <time>2017-05-09T12:53:50Z</time>
      </trkpt>
      <trkpt lat="44.83055" lon="6.27982">
        <ele>1430</ele>
        <time>2017-05-09T12:54:35Z</time>
      </trkpt>
      <trkpt lat="44.83038" lon="6.27975">
        <ele>1426</ele>
        <time>2017-05-09T12:54:55Z</time>
      </trkpt>
      <trkpt lat="44.83022" lon="6.27958">
        <ele>1427</ele>
        <time>2017-05-09T12:55:15Z</time>
      </trkpt>
      <trkpt lat="44.82995" lon="6.2794">
        <ele>1423</ele>
        <time>2017-05-09T12:55:45Z</time>
      </trkpt>
      <trkpt lat="44.82986" lon="6.27923">
        <ele>1422</ele>
        <time>2017-05-09T12:56:00Z</time>
      </trkpt>
      <trkpt lat="44.82989" lon="6.27899">
        <ele>1426</ele>
        <time>2017-05-09T12:56:15Z</time>
      </trkpt>
      <trkpt lat="44.82982" lon="6.2789">
        <ele>1425</ele>
        <time>2017-05-09T12:56:25Z</time>
      </trkpt>
      <trkpt lat="44.82971" lon="6.27867">
        <ele>1422</ele>
        <time>2017-05-09T12:56:45Z</time>
      </trkpt>
      <trkpt lat="44.82964" lon="6.27828">
        <ele>1424</ele>
        <time>2017-05-09T12:57:15Z</time>
      </trkpt>
      <trkpt lat="44.82957" lon="6.2782">
        <ele>1423</ele>
        <time>2017-05-09T12:57:25Z</time>
      </trkpt>
      <trkpt lat="44.8296" lon="6.27799">
        <ele>1425</ele>
        <time>2017-05-09T12:57:45Z</time>
      </trkpt>
      <trkpt lat="44.82952" lon="6.2779">
        <ele>1423</ele>
        <time>2017-05-09T12:58:50Z</time>
      </trkpt>
      <trkpt lat="44.82948" lon="6.2778">
        <ele>1422</ele>
        <time>2017-05-09T12:59:00Z</time>
      </trkpt>
      <trkpt lat="44.82943" lon="6.27762">
        <ele>1421</ele>
        <time>2017-05-09T12:59:15Z</time>
      </trkpt>
      <trkpt lat="44.82942" lon="6.27733">
        <ele>1421</ele>
        <time>2017-05-09T12:59:35Z</time>
      </trkpt>
      <trkpt lat="44.82945" lon="6.27705">
        <ele>1421</ele>
        <time>2017-05-09T12:59:55Z</time>
      </trkpt>
      <trkpt lat="44.82941" lon="6.27682">
        <ele>1419</ele>
        <time>2017-05-09T13:00:10Z</time>
      </trkpt>
      <trkpt lat="44.8294" lon="6.27659">
        <ele>1418</ele>
        <time>2017-05-09T13:00:25Z</time>
      </trkpt>
      <trkpt lat="44.82939" lon="6.27651">
        <ele>1417</ele>
        <time>2017-05-09T13:00:30Z</time>
      </trkpt>
      <trkpt lat="44.82923" lon="6.27626">
        <ele>1410</ele>
        <time>2017-05-09T13:00:55Z</time>
      </trkpt>
      <trkpt lat="44.82922" lon="6.27588">
        <ele>1408</ele>
        <time>2017-05-09T13:01:25Z</time>
      </trkpt>
      <trkpt lat="44.82919" lon="6.27569">
        <ele>1408</ele>
        <time>2017-05-09T13:01:45Z</time>
      </trkpt>
      <trkpt lat="44.8292" lon="6.2755">
        <ele>1409</ele>
        <time>2017-05-09T13:02:00Z</time>
      </trkpt>
      <trkpt lat="44.82919" lon="6.27537">
        <ele>1409</ele>
        <time>2017-05-09T13:02:10Z</time>
      </trkpt>
      <trkpt lat="44.8292" lon="6.27532">
        <ele>1409</ele>
        <time>2017-05-09T13:02:15Z</time>
      </trkpt>
      <trkpt lat="44.82925" lon="6.27529">
        <ele>1411</ele>
        <time>2017-05-09T13:03:15Z</time>
      </trkpt>
      <trkpt lat="44.82921" lon="6.27525">
        <ele>1410</ele>
        <time>2017-05-09T13:03:30Z</time>
      </trkpt>
      <trkpt lat="44.82919" lon="6.27521">
        <ele>1409</ele>
        <time>2017-05-09T13:03:35Z</time>
      </trkpt>
      <trkpt lat="44.82917" lon="6.27509">
        <ele>1409</ele>
        <time>2017-05-09T13:03:45Z</time>
      </trkpt>
      <trkpt lat="44.82905" lon="6.27458">
        <ele>1406</ele>
        <time>2017-05-09T13:04:30Z</time>
      </trkpt>
      <trkpt lat="44.82909" lon="6.2744">
        <ele>1409</ele>
        <time>2017-05-09T13:04:45Z</time>
      </trkpt>
      <trkpt lat="44.82909" lon="6.27433">
        <ele>1409</ele>
        <time>2017-05-09T13:04:50Z</time>
      </trkpt>
      <trkpt lat="44.82906" lon="6.27417">
        <ele>1408</ele>
        <time>2017-05-09T13:05:05Z</time>
      </trkpt>
      <trkpt lat="44.82908" lon="6.27395">
        <ele>1410</ele>
        <time>2017-05-09T13:05:25Z</time>
      </trkpt>
      <trkpt lat="44.82902" lon="6.27374">
        <ele>1409</ele>
        <time>2017-05-09T13:05:45Z</time>
      </trkpt>
      <trkpt lat="44.82903" lon="6.27326">
        <ele>1412</ele>
        <time>2017-05-09T13:06:20Z</time>
      </trkpt>
      <trkpt lat="44.82901" lon="6.27306">
        <ele>1413</ele>
        <time>2017-05-09T13:06:35Z</time>
      </trkpt>
      <trkpt lat="44.82901" lon="6.27269">
        <ele>1417</ele>
        <time>2017-05-09T13:07:10Z</time>
      </trkpt>
      <trkpt lat="44.82897" lon="6.27254">
        <ele>1417</ele>
        <time>2017-05-09T13:07:25Z</time>
      </trkpt>
      <trkpt lat="44.82899" lon="6.27245">
        <ele>1418</ele>
        <time>2017-05-09T13:07:35Z</time>
      </trkpt>
      <trkpt lat="44.82902" lon="6.27235">
        <ele>1421</ele>
        <time>2017-05-09T13:07:50Z</time>
      </trkpt>
      <trkpt lat="44.82901" lon="6.27212">
        <ele>1424</ele>
        <time>2017-05-09T13:08:20Z</time>
      </trkpt>
      <trkpt lat="44.82906" lon="6.27193">
        <ele>1428</ele>
        <time>2017-05-09T13:08:55Z</time>
      </trkpt>
      <trkpt lat="44.82904" lon="6.27172">
        <ele>1430</ele>
        <time>2017-05-09T13:09:25Z</time>
      </trkpt>
      <trkpt lat="44.82905" lon="6.27146">
        <ele>1434</ele>
        <time>2017-05-09T13:09:50Z</time>
      </trkpt>
      <trkpt lat="44.82899" lon="6.27131">
        <ele>1433</ele>
        <time>2017-05-09T13:10:10Z</time>
      </trkpt>
      <trkpt lat="44.82897" lon="6.27115">
        <ele>1434</ele>
        <time>2017-05-09T13:10:30Z</time>
      </trkpt>
      <trkpt lat="44.82904" lon="6.27094">
        <ele>1441</ele>
        <time>2017-05-09T13:10:55Z</time>
      </trkpt>
      <trkpt lat="44.82906" lon="6.27084">
        <ele>1443</ele>
        <time>2017-05-09T13:11:05Z</time>
      </trkpt>
      <trkpt lat="44.82905" lon="6.27081">
        <ele>1443</ele>
        <time>2017-05-09T13:11:10Z</time>
      </trkpt>
      <trkpt lat="44.82894" lon="6.27075">
        <ele>1437</ele>
        <time>2017-05-09T13:11:25Z</time>
      </trkpt>
      <trkpt lat="44.82895" lon="6.27071">
        <ele>1439</ele>
        <time>2017-05-09T13:11:30Z</time>
      </trkpt>
      <trkpt lat="44.82894" lon="6.2707">
        <ele>1438</ele>
        <time>2017-05-09T13:11:55Z</time>
      </trkpt>
      <trkpt lat="44.82892" lon="6.2707">
        <ele>1437</ele>
        <time>2017-05-09T13:12:15Z</time>
      </trkpt>
      <trkpt lat="44.82892" lon="6.2707">
        <ele>1437</ele>
        <time>2017-05-09T13:12:20Z</time>
      </trkpt>
      <trkpt lat="44.82889" lon="6.27061">
        <ele>1436</ele>
        <time>2017-05-09T13:13:20Z</time>
      </trkpt>
      <trkpt lat="44.8289" lon="6.27047">
        <ele>1440</ele>
        <time>2017-05-09T13:13:50Z</time>
      </trkpt>
      <trkpt lat="44.8289" lon="6.27033">
        <ele>1441</ele>
        <time>2017-05-09T13:14:10Z</time>
      </trkpt>
      <trkpt lat="44.82893" lon="6.27017">
        <ele>1445</ele>
        <time>2017-05-09T13:14:20Z</time>
      </trkpt>
      <trkpt lat="44.82882" lon="6.26975">
        <ele>1444</ele>
        <time>2017-05-09T13:14:50Z</time>
      </trkpt>
      <trkpt lat="44.82877" lon="6.26963">
        <ele>1442</ele>
        <time>2017-05-09T13:15:00Z</time>
      </trkpt>
      <trkpt lat="44.82877" lon="6.26913">
        <ele>1450</ele>
        <time>2017-05-09T13:15:45Z</time>
      </trkpt>
      <trkpt lat="44.82874" lon="6.26889">
        <ele>1452</ele>
        <time>2017-05-09T13:16:10Z</time>
      </trkpt>
      <trkpt lat="44.82878" lon="6.26879">
        <ele>1455</ele>
        <time>2017-05-09T13:16:30Z</time>
      </trkpt>
      <trkpt lat="44.82877" lon="6.2688">
        <ele>1454</ele>
        <time>2017-05-09T13:16:40Z</time>
      </trkpt>
      <trkpt lat="44.8287" lon="6.26871">
        <ele>1452</ele>
        <time>2017-05-09T13:17:20Z</time>
      </trkpt>
      <trkpt lat="44.82859" lon="6.26838">
        <ele>1450</ele>
        <time>2017-05-09T13:17:45Z</time>
      </trkpt>
      <trkpt lat="44.82857" lon="6.2683">
        <ele>1449</ele>
        <time>2017-05-09T13:17:50Z</time>
      </trkpt>
      <trkpt lat="44.82857" lon="6.26798">
        <ele>1452</ele>
        <time>2017-05-09T13:18:10Z</time>
      </trkpt>
      <trkpt lat="44.82858" lon="6.26789">
        <ele>1454</ele>
        <time>2017-05-09T13:18:15Z</time>
      </trkpt>
      <trkpt lat="44.82853" lon="6.26748">
        <ele>1453</ele>
        <time>2017-05-09T13:18:40Z</time>
      </trkpt>
      <trkpt lat="44.82848" lon="6.26723">
        <ele>1451</ele>
        <time>2017-05-09T13:18:55Z</time>
      </trkpt>
      <trkpt lat="44.82848" lon="6.2668">
        <ele>1452</ele>
        <time>2017-05-09T13:19:20Z</time>
      </trkpt>
      <trkpt lat="44.82844" lon="6.26629">
        <ele>1450</ele>
        <time>2017-05-09T13:19:55Z</time>
      </trkpt>
      <trkpt lat="44.8284" lon="6.26601">
        <ele>1448</ele>
        <time>2017-05-09T13:20:15Z</time>
      </trkpt>
      <trkpt lat="44.82837" lon="6.26568">
        <ele>1447</ele>
        <time>2017-05-09T13:20:35Z</time>
      </trkpt>
      <trkpt lat="44.82823" lon="6.2652">
        <ele>1442</ele>
        <time>2017-05-09T13:21:10Z</time>
      </trkpt>
      <trkpt lat="44.82818" lon="6.26499">
        <ele>1441</ele>
        <time>2017-05-09T13:21:25Z</time>
      </trkpt>
      <trkpt lat="44.82818" lon="6.26467">
        <ele>1443</ele>
        <time>2017-05-09T13:21:45Z</time>
      </trkpt>
      <trkpt lat="44.82814" lon="6.26444">
        <ele>1442</ele>
        <time>2017-05-09T13:22:00Z</time>
      </trkpt>
      <trkpt lat="44.82813" lon="6.26412">
        <ele>1444</ele>
        <time>2017-05-09T13:22:20Z</time>
      </trkpt>
      <trkpt lat="44.82808" lon="6.26391">
        <ele>1444</ele>
        <time>2017-05-09T13:22:35Z</time>
      </trkpt>
      <trkpt lat="44.82805" lon="6.2637">
        <ele>1445</ele>
        <time>2017-05-09T13:22:50Z</time>
      </trkpt>
      <trkpt lat="44.82795" lon="6.26342">
        <ele>1445</ele>
        <time>2017-05-09T13:23:10Z</time>
      </trkpt>
      <trkpt lat="44.82781" lon="6.26336">
        <ele>1442</ele>
        <time>2017-05-09T13:23:25Z</time>
      </trkpt>
      <trkpt lat="44.82753" lon="6.26329">
        <ele>1434</ele>
        <time>2017-05-09T13:23:50Z</time>
      </trkpt>
      <trkpt lat="44.82728" lon="6.26301">
        <ele>1428</ele>
        <time>2017-05-09T13:24:20Z</time>
      </trkpt>
      <trkpt lat="44.82721" lon="6.26272">
        <ele>1429</ele>
        <time>2017-05-09T13:24:40Z</time>
      </trkpt>
      <trkpt lat="44.82715" lon="6.26251">
        <ele>1429</ele>
        <time>2017-05-09T13:24:55Z</time>
      </trkpt>
      <trkpt lat="44.8271" lon="6.26215">
        <ele>1430</ele>
        <time>2017-05-09T13:25:25Z</time>
      </trkpt>
      <trkpt lat="44.82705" lon="6.26201">
        <ele>1429</ele>
        <time>2017-05-09T13:25:35Z</time>
      </trkpt>
      <trkpt lat="44.8269" lon="6.26169">
        <ele>1424</ele>
        <time>2017-05-09T13:26:00Z</time>
      </trkpt>
      <trkpt lat="44.82688" lon="6.26153">
        <ele>1423</ele>
        <time>2017-05-09T13:26:10Z</time>
      </trkpt>
      <trkpt lat="44.82691" lon="6.26136">
        <ele>1422</ele>
        <time>2017-05-09T13:26:45Z</time>
      </trkpt>
      <trkpt lat="44.82688" lon="6.26134">
        <ele>1420</ele>
        <time>2017-05-09T13:26:50Z</time>
      </trkpt>
      <trkpt lat="44.82691" lon="6.26124">
        <ele>1420</ele>
        <time>2017-05-09T13:27:00Z</time>
      </trkpt>
      <trkpt lat="44.82693" lon="6.26081">
        <ele>1414</ele>
        <time>2017-05-09T13:27:30Z</time>
      </trkpt>
      <trkpt lat="44.82696" lon="6.26076">
        <ele>1415</ele>
        <time>2017-05-09T13:27:35Z</time>
      </trkpt>
      <trkpt lat="44.82697" lon="6.26053">
        <ele>1412</ele>
        <time>2017-05-09T13:28:20Z</time>
      </trkpt>
      <trkpt lat="44.82716" lon="6.2604">
        <ele>1420</ele>
        <time>2017-05-09T13:28:50Z</time>
      </trkpt>
      <trkpt lat="44.82721" lon="6.26034">
        <ele>1422</ele>
        <time>2017-05-09T13:28:55Z</time>
      </trkpt>
      <trkpt lat="44.82726" lon="6.25999">
        <ele>1425</ele>
        <time>2017-05-09T13:29:15Z</time>
      </trkpt>
      <trkpt lat="44.82717" lon="6.25966">
        <ele>1424</ele>
        <time>2017-05-09T13:29:35Z</time>
      </trkpt>
      <trkpt lat="44.82709" lon="6.25952">
        <ele>1421</ele>
        <time>2017-05-09T13:29:45Z</time>
      </trkpt>
      <trkpt lat="44.82698" lon="6.25917">
        <ele>1420</ele>
        <time>2017-05-09T13:30:15Z</time>
      </trkpt>
      <trkpt lat="44.82688" lon="6.25897">
        <ele>1418</ele>
        <time>2017-05-09T13:30:45Z</time>
      </trkpt>
      <trkpt lat="44.82666" lon="6.25872">
        <ele>1408</ele>
        <time>2017-05-09T13:31:20Z</time>
      </trkpt>
      <trkpt lat="44.82658" lon="6.25855">
        <ele>1405</ele>
        <time>2017-05-09T13:31:40Z</time>
      </trkpt>
      <trkpt lat="44.82644" lon="6.25828">
        <ele>1398</ele>
        <time>2017-05-09T13:32:00Z</time>
      </trkpt>
      <trkpt lat="44.82634" lon="6.25797">
        <ele>1393</ele>
        <time>2017-05-09T13:32:20Z</time>
      </trkpt>
      <trkpt lat="44.82629" lon="6.25761">
        <ele>1387</ele>
        <time>2017-05-09T13:32:45Z</time>
      </trkpt>
      <trkpt lat="44.82624" lon="6.25739">
        <ele>1382</ele>
        <time>2017-05-09T13:33:00Z</time>
      </trkpt>
      <trkpt lat="44.82628" lon="6.25714">
        <ele>1380</ele>
        <time>2017-05-09T13:33:15Z</time>
      </trkpt>
      <trkpt lat="44.82635" lon="6.25693">
        <ele>1380</ele>
        <time>2017-05-09T13:33:30Z</time>
      </trkpt>
      <trkpt lat="44.82656" lon="6.25674">
        <ele>1392</ele>
        <time>2017-05-09T13:33:50Z</time>
      </trkpt>
      <trkpt lat="44.82663" lon="6.25662">
        <ele>1396</ele>
        <time>2017-05-09T13:34:00Z</time>
      </trkpt>
      <trkpt lat="44.8266" lon="6.25647">
        <ele>1392</ele>
        <time>2017-05-09T13:34:10Z</time>
      </trkpt>
      <trkpt lat="44.82645" lon="6.25612">
        <ele>1376</ele>
        <time>2017-05-09T13:34:35Z</time>
      </trkpt>
      <trkpt lat="44.82641" lon="6.25587">
        <ele>1370</ele>
        <time>2017-05-09T13:34:50Z</time>
      </trkpt>
      <trkpt lat="44.82652" lon="6.25534">
        <ele>1371</ele>
        <time>2017-05-09T13:35:20Z</time>
      </trkpt>
      <trkpt lat="44.82654" lon="6.25512">
        <ele>1369</ele>
        <time>2017-05-09T13:35:35Z</time>
      </trkpt>
      <trkpt lat="44.82662" lon="6.2549">
        <ele>1371</ele>
        <time>2017-05-09T13:35:50Z</time>
      </trkpt>
      <trkpt lat="44.82667" lon="6.25452">
        <ele>1368</ele>
        <time>2017-05-09T13:36:15Z</time>
      </trkpt>
      <trkpt lat="44.82667" lon="6.25446">
        <ele>1367</ele>
        <time>2017-05-09T13:36:45Z</time>
      </trkpt>
      <trkpt lat="44.82672" lon="6.25431">
        <ele>1368</ele>
        <time>2017-05-09T13:36:55Z</time>
      </trkpt>
      <trkpt lat="44.82675" lon="6.254">
        <ele>1366</ele>
        <time>2017-05-09T13:37:15Z</time>
      </trkpt>
      <trkpt lat="44.82675" lon="6.25383">
        <ele>1364</ele>
        <time>2017-05-09T13:37:25Z</time>
      </trkpt>
      <trkpt lat="44.82678" lon="6.25329">
        <ele>1357</ele>
        <time>2017-05-09T13:38:00Z</time>
      </trkpt>
      <trkpt lat="44.82675" lon="6.25278">
        <ele>1349</ele>
        <time>2017-05-09T13:38:30Z</time>
      </trkpt>
      <trkpt lat="44.82679" lon="6.25238">
        <ele>1346</ele>
        <time>2017-05-09T13:38:55Z</time>
      </trkpt>
      <trkpt lat="44.82681" lon="6.25213">
        <ele>1344</ele>
        <time>2017-05-09T13:39:10Z</time>
      </trkpt>
      <trkpt lat="44.82682" lon="6.25169">
        <ele>1339</ele>
        <time>2017-05-09T13:39:35Z</time>
      </trkpt>
      <trkpt lat="44.82684" lon="6.25134">
        <ele>1336</ele>
        <time>2017-05-09T13:39:55Z</time>
      </trkpt>
      <trkpt lat="44.82685" lon="6.25105">
        <ele>1333</ele>
        <time>2017-05-09T13:40:15Z</time>
      </trkpt>
      <trkpt lat="44.82687" lon="6.25082">
        <ele>1331</ele>
        <time>2017-05-09T13:40:30Z</time>
      </trkpt>
      <trkpt lat="44.82691" lon="6.25011">
        <ele>1327</ele>
        <time>2017-05-09T13:41:20Z</time>
      </trkpt>
      <trkpt lat="44.82692" lon="6.24983">
        <ele>1323</ele>
        <time>2017-05-09T13:41:35Z</time>
      </trkpt>
      <trkpt lat="44.82693" lon="6.24964">
        <ele>1322</ele>
        <time>2017-05-09T13:41:45Z</time>
      </trkpt>
      <trkpt lat="44.82691" lon="6.24919">
        <ele>1316</ele>
        <time>2017-05-09T13:42:10Z</time>
      </trkpt>
      <trkpt lat="44.82689" lon="6.24899">
        <ele>1313</ele>
        <time>2017-05-09T13:42:20Z</time>
      </trkpt>
      <trkpt lat="44.8269" lon="6.24867">
        <ele>1310</ele>
        <time>2017-05-09T13:42:40Z</time>
      </trkpt>
      <trkpt lat="44.82689" lon="6.24829">
        <ele>1305</ele>
        <time>2017-05-09T13:43:05Z</time>
      </trkpt>
      <trkpt lat="44.8269" lon="6.24808">
        <ele>1303</ele>
        <time>2017-05-09T13:43:20Z</time>
      </trkpt>
      <trkpt lat="44.82693" lon="6.24784">
        <ele>1303</ele>
        <time>2017-05-09T13:43:35Z</time>
      </trkpt>
      <trkpt lat="44.82694" lon="6.24759">
        <ele>1301</ele>
        <time>2017-05-09T13:43:50Z</time>
      </trkpt>
      <trkpt lat="44.82698" lon="6.24703">
        <ele>1301</ele>
        <time>2017-05-09T13:44:25Z</time>
      </trkpt>
      <trkpt lat="44.82696" lon="6.24694">
        <ele>1299</ele>
        <time>2017-05-09T13:44:30Z</time>
      </trkpt>
      <trkpt lat="44.82692" lon="6.24654">
        <ele>1296</ele>
        <time>2017-05-09T13:44:55Z</time>
      </trkpt>
      <trkpt lat="44.82684" lon="6.24618">
        <ele>1293</ele>
        <time>2017-05-09T13:45:25Z</time>
      </trkpt>
      <trkpt lat="44.82666" lon="6.24561">
        <ele>1283</ele>
        <time>2017-05-09T13:46:05Z</time>
      </trkpt>
      <trkpt lat="44.82665" lon="6.24553">
        <ele>1282</ele>
        <time>2017-05-09T13:46:10Z</time>
      </trkpt>
      <trkpt lat="44.82661" lon="6.24516">
        <ele>1279</ele>
        <time>2017-05-09T13:46:35Z</time>
      </trkpt>
      <trkpt lat="44.82658" lon="6.24501">
        <ele>1277</ele>
        <time>2017-05-09T13:46:45Z</time>
      </trkpt>
      <trkpt lat="44.82658" lon="6.24463">
        <ele>1274</ele>
        <time>2017-05-09T13:47:10Z</time>
      </trkpt>
      <trkpt lat="44.82659" lon="6.24448">
        <ele>1274</ele>
        <time>2017-05-09T13:47:20Z</time>
      </trkpt>
      <trkpt lat="44.82661" lon="6.24432">
        <ele>1273</ele>
        <time>2017-05-09T13:47:30Z</time>
      </trkpt>
      <trkpt lat="44.82661" lon="6.24371">
        <ele>1265</ele>
        <time>2017-05-09T13:48:10Z</time>
      </trkpt>
      <trkpt lat="44.82662" lon="6.24357">
        <ele>1263</ele>
        <time>2017-05-09T13:48:20Z</time>
      </trkpt>
      <trkpt lat="44.82679" lon="6.24296">
        <ele>1263</ele>
        <time>2017-05-09T13:49:05Z</time>
      </trkpt>
      <trkpt lat="44.82691" lon="6.24231">
        <ele>1261</ele>
        <time>2017-05-09T13:49:50Z</time>
      </trkpt>
      <trkpt lat="44.82689" lon="6.2423">
        <ele>1260</ele>
        <time>2017-05-09T13:50:00Z</time>
      </trkpt>
      <trkpt lat="44.82699" lon="6.24213">
        <ele>1267</ele>
        <time>2017-05-09T13:50:10Z</time>
      </trkpt>
      <trkpt lat="44.82701" lon="6.24202">
        <ele>1268</ele>
        <time>2017-05-09T13:50:15Z</time>
      </trkpt>
      <trkpt lat="44.82702" lon="6.24175">
        <ele>1269</ele>
        <time>2017-05-09T13:50:35Z</time>
      </trkpt>
      <trkpt lat="44.82691" lon="6.2413">
        <ele>1267</ele>
        <time>2017-05-09T13:51:05Z</time>
      </trkpt>
      <trkpt lat="44.82682" lon="6.2411">
        <ele>1265</ele>
        <time>2017-05-09T13:51:20Z</time>
      </trkpt>
      <trkpt lat="44.82671" lon="6.24076">
        <ele>1260</ele>
        <time>2017-05-09T13:51:45Z</time>
      </trkpt>
      <trkpt lat="44.82662" lon="6.24056">
        <ele>1256</ele>
        <time>2017-05-09T13:52:00Z</time>
      </trkpt>
      <trkpt lat="44.82648" lon="6.24029">
        <ele>1248</ele>
        <time>2017-05-09T13:52:20Z</time>
      </trkpt>
      <trkpt lat="44.82644" lon="6.24016">
        <ele>1247</ele>
        <time>2017-05-09T13:52:30Z</time>
      </trkpt>
      <trkpt lat="44.82642" lon="6.23993">
        <ele>1248</ele>
        <time>2017-05-09T13:52:45Z</time>
      </trkpt>
      <trkpt lat="44.8264" lon="6.23986">
        <ele>1247</ele>
        <time>2017-05-09T13:52:50Z</time>
      </trkpt>
      <trkpt lat="44.82623" lon="6.23935">
        <ele>1241</ele>
        <time>2017-05-09T13:53:25Z</time>
      </trkpt>
      <trkpt lat="44.82617" lon="6.23902">
        <ele>1241</ele>
        <time>2017-05-09T13:53:55Z</time>
      </trkpt>
      <trkpt lat="44.82606" lon="6.2386">
        <ele>1239</ele>
        <time>2017-05-09T13:54:25Z</time>
      </trkpt>
      <trkpt lat="44.82604" lon="6.23845">
        <ele>1239</ele>
        <time>2017-05-09T13:54:35Z</time>
      </trkpt>
      <trkpt lat="44.826" lon="6.23813">
        <ele>1239</ele>
        <time>2017-05-09T13:54:55Z</time>
      </trkpt>
      <trkpt lat="44.82595" lon="6.23789">
        <ele>1237</ele>
        <time>2017-05-09T13:55:10Z</time>
      </trkpt>
      <trkpt lat="44.82583" lon="6.23725">
        <ele>1234</ele>
        <time>2017-05-09T13:55:55Z</time>
      </trkpt>
      <trkpt lat="44.82575" lon="6.23704">
        <ele>1230</ele>
        <time>2017-05-09T13:56:10Z</time>
      </trkpt>
      <trkpt lat="44.82566" lon="6.23674">
        <ele>1226</ele>
        <time>2017-05-09T13:56:30Z</time>
      </trkpt>
      <trkpt lat="44.8256" lon="6.23637">
        <ele>1224</ele>
        <time>2017-05-09T13:56:55Z</time>
      </trkpt>
      <trkpt lat="44.8256" lon="6.23587">
        <ele>1226</ele>
        <time>2017-05-09T13:57:25Z</time>
      </trkpt>
      <trkpt lat="44.82553" lon="6.23555">
        <ele>1221</ele>
        <time>2017-05-09T13:57:45Z</time>
      </trkpt>
      <trkpt lat="44.82551" lon="6.23538">
        <ele>1220</ele>
        <time>2017-05-09T13:57:55Z</time>
      </trkpt>
      <trkpt lat="44.8255" lon="6.2352">
        <ele>1219</ele>
        <time>2017-05-09T13:58:05Z</time>
      </trkpt>
      <trkpt lat="44.82554" lon="6.23464">
        <ele>1219</ele>
        <time>2017-05-09T13:58:40Z</time>
      </trkpt>
      <trkpt lat="44.82554" lon="6.23441">
        <ele>1218</ele>
        <time>2017-05-09T13:58:55Z</time>
      </trkpt>
      <trkpt lat="44.82548" lon="6.23432">
        <ele>1214</ele>
        <time>2017-05-09T13:59:15Z</time>
      </trkpt>
      <trkpt lat="44.82545" lon="6.23434">
        <ele>1213</ele>
        <time>2017-05-09T13:59:20Z</time>
      </trkpt>
      <trkpt lat="44.8254" lon="6.23422">
        <ele>1209</ele>
        <time>2017-05-09T13:59:35Z</time>
      </trkpt>
      <trkpt lat="44.82537" lon="6.23442">
        <ele>1208</ele>
        <time>2017-05-09T13:59:55Z</time>
      </trkpt>
      <trkpt lat="44.82528" lon="6.2343">
        <ele>1202</ele>
        <time>2017-05-09T14:00:15Z</time>
      </trkpt>
      <trkpt lat="44.82514" lon="6.23443">
        <ele>1194</ele>
        <time>2017-05-09T14:00:45Z</time>
      </trkpt>
      <trkpt lat="44.82507" lon="6.23432">
        <ele>1190</ele>
        <time>2017-05-09T14:01:05Z</time>
      </trkpt>
      <trkpt lat="44.82505" lon="6.23403">
        <ele>1187</ele>
        <time>2017-05-09T14:01:40Z</time>
      </trkpt>
      <trkpt lat="44.82492" lon="6.23401">
        <ele>1179</ele>
        <time>2017-05-09T14:02:00Z</time>
      </trkpt>
      <trkpt lat="44.82488" lon="6.23397">
        <ele>1178</ele>
        <time>2017-05-09T14:02:10Z</time>
      </trkpt>
      <trkpt lat="44.82489" lon="6.23374">
        <ele>1177</ele>
        <time>2017-05-09T14:02:25Z</time>
      </trkpt>
      <trkpt lat="44.82488" lon="6.23367">
        <ele>1177</ele>
        <time>2017-05-09T14:02:30Z</time>
      </trkpt>
      <trkpt lat="44.82482" lon="6.23352">
        <ele>1176</ele>
        <time>2017-05-09T14:02:40Z</time>
      </trkpt>
      <trkpt lat="44.82476" lon="6.23328">
        <ele>1175</ele>
        <time>2017-05-09T14:03:10Z</time>
      </trkpt>
      <trkpt lat="44.82477" lon="6.23327">
        <ele>1175</ele>
        <time>2017-05-09T14:03:32Z</time>
      </trkpt>
    </trkseg>
  </trk>
</gpx>